Time,TemperatureF,DewpointF,PressureIn,WindDirection,WindDirectionDegrees,WindSpeedMPH,WindSpeedGustMPH,Humidity,HourlyPrecipIn,Conditions,Clouds,dailyrainin,SoftwareType,DateUTC
2013-01-16 00:00:00,45.3,44.8,30.00,WNW,286,0.0,0.0,98,0.09,RA,,0.00,WeatherDisplay:10.37,2013-01-16 05:00:00,
2013-01-16 00:01:00,45.3,44.8,30.00,WNW,285,0.0,0.4,98,0.09,RA,,0.00,WeatherDisplay:10.37,2013-01-16 05:01:00,
2013-01-16 00:02:00,45.3,44.8,30.00,WNW,285,1.1,0.0,98,0.08,RA,,0.00,WeatherDisplay:10.37,2013-01-16 05:02:00,
2013-01-16 00:05:00,45.2,44.7,30.00,South,170,1.1,1.1,98,0.09,RA,,0.01,WeatherDisplay:10.37,2013-01-16 05:05:00,
2013-01-16 00:06:00,45.3,44.8,30.00,SE,144,2.3,2.3,98,0.09,RA,,0.01,WeatherDisplay:10.37,2013-01-16 05:06:00,
2013-01-16 00:07:00,45.3,44.8,30.00,SE,144,2.3,2.3,98,0.09,RA,,0.01,WeatherDisplay:10.37,2013-01-16 05:07:00,
2013-01-16 00:11:00,45.3,44.8,29.99,SE,141,2.3,2.3,98,0.08,RA,,0.01,WeatherDisplay:10.37,2013-01-16 05:11:00,
2013-01-16 00:12:00,45.3,44.8,29.99,SE,129,2.3,2.3,98,0.08,RA,,0.01,WeatherDisplay:10.37,2013-01-16 05:12:00,
2013-01-16 00:16:00,45.4,44.9,29.99,East,96,2.3,2.3,98,0.08,,,0.02,WeatherDisplay:10.37,2013-01-16 05:16:00,
2013-01-16 00:17:00,45.4,44.9,30.00,East,96,2.3,2.3,98,0.08,RA,,0.02,WeatherDisplay:10.37,2013-01-16 05:17:00,
2013-01-16 00:18:00,45.4,44.9,30.00,East,96,0.0,0.0,98,0.08,RA,,0.02,WeatherDisplay:10.37,2013-01-16 05:18:00,
2013-01-16 00:22:00,45.5,45.0,30.01,WNW,290,1.1,1.1,98,0.08,RA,,0.02,WeatherDisplay:10.37,2013-01-16 05:22:00,
2013-01-16 00:23:00,45.5,45.0,30.01,WNW,290,1.1,1.1,98,0.08,RA,,0.02,WeatherDisplay:10.37,2013-01-16 05:23:00,
2013-01-16 00:27:00,45.5,45.0,30.02,WNW,285,1.1,1.1,98,0.08,RA,,0.03,WeatherDisplay:10.37,2013-01-16 05:27:00,
2013-01-16 00:28:00,45.5,45.0,30.01,WNW,285,1.1,0.0,98,0.08,RA,,0.03,WeatherDisplay:10.37,2013-01-16 05:28:00,
2013-01-16 00:32:00,45.5,45.0,30.01,WNW,285,0.0,0.0,98,0.10,RA,,0.05,WeatherDisplay:10.37,2013-01-16 05:32:00,
2013-01-16 00:33:00,45.5,45.0,30.01,WNW,285,0.0,0.0,98,0.10,RA,,0.05,WeatherDisplay:10.37,2013-01-16 05:33:00,
2013-01-16 00:37:00,45.5,45.0,30.02,WNW,285,1.1,0.0,98,0.10,RA,,0.06,WeatherDisplay:10.37,2013-01-16 05:37:00,
2013-01-16 00:38:00,45.5,45.0,30.02,WNW,286,1.1,0.0,98,0.10,RA,,0.06,WeatherDisplay:10.37,2013-01-16 05:38:00,
2013-01-16 00:39:00,45.6,45.1,30.02,WNW,285,0.0,0.0,98,0.09,RA,,0.06,WeatherDisplay:10.37,2013-01-16 05:39:00,
2013-01-16 00:43:00,45.6,45.1,30.00,SE,141,2.3,2.3,98,0.11,RA,,0.08,WeatherDisplay:10.37,2013-01-16 05:43:00,
2013-01-16 00:44:00,45.6,45.1,30.00,SE,141,4.0,4.0,98,0.12,RA,,0.09,WeatherDisplay:10.37,2013-01-16 05:44:00,
2013-01-16 00:48:00,45.6,45.1,30.00,ESE,102,2.3,2.3,98,0.11,RA,,0.09,WeatherDisplay:10.37,2013-01-16 05:48:00,
2013-01-16 00:49:00,45.6,45.1,30.01,SSE,167,2.3,2.3,98,0.11,RA,,0.09,WeatherDisplay:10.37,2013-01-16 05:49:00,
2013-01-16 00:53:00,45.7,45.2,30.00,ESE,122,3.5,3.5,98,0.11,RA,,0.10,WeatherDisplay:10.37,2013-01-16 05:53:00,
2013-01-16 00:54:00,45.7,45.2,30.00,SE,136,3.5,3.5,98,0.11,RA,,0.10,WeatherDisplay:10.37,2013-01-16 05:54:00,
2013-01-16 00:55:00,45.7,45.2,30.00,SSE,152,3.5,3.5,98,0.11,RA,,0.10,WeatherDisplay:10.37,2013-01-16 05:55:00,
2013-01-16 00:58:00,45.6,45.1,30.01,West,266,1.1,0.0,98,0.10,RA,,0.10,WeatherDisplay:10.37,2013-01-16 05:58:00,
2013-01-16 00:59:00,45.7,45.2,30.01,West,269,1.1,1.1,98,0.10,RA,,0.10,WeatherDisplay:10.37,2013-01-16 05:59:00,
2013-01-16 01:00:00,45.7,45.2,30.01,West,269,1.1,1.1,98,0.10,RA,,0.10,WeatherDisplay:10.37,2013-01-16 06:00:00,
2013-01-16 01:03:00,45.7,45.2,30.01,NW,307,1.1,0.0,98,0.10,CLR,,0.10,WeatherDisplay:10.37,2013-01-16 06:03:00,
2013-01-16 01:04:00,45.7,45.2,30.01,NW,308,1.1,0.0,98,0.09,CLR,,0.10,WeatherDisplay:10.37,2013-01-16 06:04:00,
2013-01-16 01:05:00,45.7,45.2,30.01,NW,306,1.1,1.1,98,0.09,CLR,,0.10,WeatherDisplay:10.37,2013-01-16 06:05:00,
2013-01-16 01:08:00,45.7,45.2,30.01,NW,306,1.1,0.0,98,0.09,CLR,,0.10,WeatherDisplay:10.37,2013-01-16 06:08:00,
2013-01-16 01:09:00,45.7,45.2,30.01,NW,307,0.0,0.0,98,0.09,CLR,,0.10,WeatherDisplay:10.37,2013-01-16 06:09:00,
2013-01-16 01:10:00,45.7,45.2,30.01,NW,307,1.1,1.1,98,0.09,CLR,,0.10,WeatherDisplay:10.37,2013-01-16 06:10:00,
2013-01-16 01:13:00,45.6,45.1,30.00,NW,308,1.0,1.0,98,0.09,CLR,,0.10,WeatherDisplay:10.37,2013-01-16 06:13:00,
2013-01-16 01:14:00,45.6,45.1,30.00,NW,306,1.1,1.1,98,0.09,CLR,,0.11,WeatherDisplay:10.37,2013-01-16 06:14:00,
2013-01-16 01:15:00,45.6,45.1,30.00,SSE,160,1.1,1.1,98,0.10,RA,,0.11,WeatherDisplay:10.37,2013-01-16 06:15:00,
2013-01-16 01:19:00,45.6,45.1,30.00,SSE,149,1.1,1.1,98,0.09,RA,,0.11,WeatherDisplay:10.37,2013-01-16 06:19:00,
2013-01-16 01:20:00,45.6,45.1,30.00,SE,141,2.3,2.3,98,0.09,RA,,0.11,WeatherDisplay:10.37,2013-01-16 06:20:00,
2013-01-16 01:24:00,45.6,45.1,30.01,SE,141,0.0,0.0,98,0.09,RA,,0.11,WeatherDisplay:10.37,2013-01-16 06:24:00,
2013-01-16 01:26:00,45.6,45.1,30.01,SE,141,0.0,0.0,98,0.08,CLR,,0.11,WeatherDisplay:10.37,2013-01-16 06:26:00,
2013-01-16 01:29:00,45.6,45.1,30.00,SE,141,1.1,0.0,98,0.07,CLR,,0.11,WeatherDisplay:10.37,2013-01-16 06:29:00,
2013-01-16 01:30:00,45.6,45.1,30.00,SE,141,1.1,0.0,98,0.07,CLR,,0.11,WeatherDisplay:10.37,2013-01-16 06:30:00,
2013-01-16 01:31:00,45.6,45.1,30.01,SE,141,0.0,0.0,98,0.06,CLR,,0.11,WeatherDisplay:10.37,2013-01-16 06:31:00,
2013-01-16 01:34:00,45.6,45.1,30.01,SE,141,0.0,0.0,98,0.05,CLR,,0.11,WeatherDisplay:10.37,2013-01-16 06:34:00,
2013-01-16 01:35:00,45.6,45.1,30.01,SE,141,0.0,0.0,98,0.05,CLR,,0.11,WeatherDisplay:10.37,2013-01-16 06:35:00,
2013-01-16 01:36:00,45.6,45.1,30.01,SE,137,1.1,1.1,98,0.05,CLR,,0.11,WeatherDisplay:10.37,2013-01-16 06:36:00,
2013-01-16 01:39:00,45.5,45.0,30.00,SE,127,2.3,2.3,98,0.05,CLR,,0.11,WeatherDisplay:10.37,2013-01-16 06:39:00,
2013-01-16 01:40:00,45.5,45.0,30.00,SE,127,1.1,1.1,98,0.04,CLR,,0.11,WeatherDisplay:10.37,2013-01-16 06:40:00,
2013-01-16 01:41:00,45.5,45.0,30.00,East,92,2.3,2.3,98,0.04,CLR,,0.11,WeatherDisplay:10.37,2013-01-16 06:41:00,
2013-01-16 01:45:00,45.5,45.0,30.00,ESE,116,2.3,2.3,98,0.02,CLR,,0.11,WeatherDisplay:10.37,2013-01-16 06:45:00,
2013-01-16 01:47:00,45.5,45.0,29.99,East,84,1.1,1.1,98,0.02,CLR,,0.11,WeatherDisplay:10.37,2013-01-16 06:47:00,
2013-01-16 01:50:00,45.5,45.0,29.99,East,95,2.3,2.3,98,0.02,CLR,,0.11,WeatherDisplay:10.37,2013-01-16 06:50:00,
2013-01-16 01:52:00,45.5,45.0,29.99,ESE,102,2.3,2.3,98,0.01,CLR,,0.11,WeatherDisplay:10.37,2013-01-16 06:52:00,
2013-01-16 01:55:00,45.4,44.9,29.99,ENE,73,3.5,3.5,98,0.01,CLR,,0.11,WeatherDisplay:10.37,2013-01-16 06:55:00,
2013-01-16 01:57:00,45.4,44.9,29.99,East,80,2.3,2.3,98,0.01,CLR,,0.11,WeatherDisplay:10.37,2013-01-16 06:57:00,
2013-01-16 02:00:00,45.4,44.9,29.99,East,80,1.1,0.0,98,0.01,CLR,,0.11,WeatherDisplay:10.37,2013-01-16 07:00:00,
2013-01-16 02:01:00,45.4,44.9,29.99,East,80,0.0,0.0,98,0.01,CLR,,0.11,WeatherDisplay:10.37,2013-01-16 07:01:00,
2013-01-16 02:02:00,45.4,44.9,29.99,East,89,2.0,2.0,98,0.01,CLR,,0.11,WeatherDisplay:10.37,2013-01-16 07:02:00,
2013-01-16 02:05:00,45.4,44.9,29.99,NE,43,1.1,1.3,98,0.01,CLR,,0.11,WeatherDisplay:10.37,2013-01-16 07:05:00,
2013-01-16 02:07:00,45.3,44.8,29.99,NE,56,3.5,3.5,98,0.01,CLR,,0.11,WeatherDisplay:10.37,2013-01-16 07:07:00,
2013-01-16 02:11:00,45.3,44.8,29.99,SE,129,1.1,1.1,98,0.01,CLR,,0.11,WeatherDisplay:10.37,2013-01-16 07:11:00,
2013-01-16 02:12:00,45.2,44.7,29.99,ENE,61,1.1,1.1,98,0.01,CLR,,0.11,WeatherDisplay:10.37,2013-01-16 07:12:00,
2013-01-16 02:13:00,45.2,44.7,29.99,East,89,1.1,1.2,98,0.01,CLR,,0.11,WeatherDisplay:10.37,2013-01-16 07:13:00,
2013-01-16 02:16:00,45.1,44.3,29.99,ENE,64,3.5,3.5,97,0.01,RA,,0.12,WeatherDisplay:10.37,2013-01-16 07:16:00,
2013-01-16 02:17:00,45.1,44.3,29.99,SE,132,3.5,3.5,97,0.01,RA,,0.12,WeatherDisplay:10.37,2013-01-16 07:17:00,
2013-01-16 02:18:00,45.1,44.3,29.99,SE,136,3.5,3.5,97,0.01,RA,,0.12,WeatherDisplay:10.37,2013-01-16 07:18:00,
2013-01-16 02:21:00,45.0,44.2,29.99,SE,141,4.6,4.6,97,0.02,RA,,0.13,WeatherDisplay:10.37,2013-01-16 07:21:00,
2013-01-16 02:23:00,45.0,44.2,29.99,East,98,3.5,3.5,97,0.02,RA,,0.13,WeatherDisplay:10.37,2013-01-16 07:23:00,
2013-01-16 02:26:00,44.9,44.1,30.00,East,83,2.3,2.3,97,0.02,RA,,0.13,WeatherDisplay:10.37,2013-01-16 07:26:00,
2013-01-16 02:28:00,44.9,44.1,30.00,East,84,1.1,1.1,97,0.02,RA,,0.13,WeatherDisplay:10.37,2013-01-16 07:28:00,
2013-01-16 02:29:00,44.9,44.4,29.99,NE,51,3.0,3.0,98,0.03,RA,,0.14,WeatherDisplay:10.37,2013-01-16 07:29:00,
2013-01-16 02:31:00,44.9,44.1,29.99,East,101,3.5,3.5,97,0.03,RA,,0.14,WeatherDisplay:10.37,2013-01-16 07:31:00,
2013-01-16 02:33:00,44.9,44.1,30.00,SE,125,2.0,2.0,97,0.03,RA,,0.14,WeatherDisplay:10.37,2013-01-16 07:33:00,
2013-01-16 02:34:00,44.9,44.1,30.00,East,82,2.3,2.3,97,0.03,RA,,0.14,WeatherDisplay:10.37,2013-01-16 07:34:00,
2013-01-16 02:37:00,44.9,44.1,29.99,ESE,102,2.3,2.3,97,0.03,RA,,0.14,WeatherDisplay:10.37,2013-01-16 07:37:00,
2013-01-16 02:38:00,44.9,44.4,29.99,NE,54,2.3,2.3,98,0.04,RA,,0.15,WeatherDisplay:10.37,2013-01-16 07:38:00,
2013-01-16 02:39:00,44.9,44.4,29.99,East,94,2.3,2.3,98,0.04,RA,,0.15,WeatherDisplay:10.37,2013-01-16 07:39:00,
2013-01-16 02:42:00,44.9,44.1,29.99,East,91,2.3,2.3,97,0.04,RA,,0.15,WeatherDisplay:10.37,2013-01-16 07:42:00,
2013-01-16 02:44:00,44.9,44.1,29.99,SE,139,2.3,2.3,97,0.04,RA,,0.15,WeatherDisplay:10.37,2013-01-16 07:44:00,
2013-01-16 02:45:00,44.9,44.1,29.99,ESE,110,1.0,3.0,97,0.00,RA,,0.15,WeatherDisplay:10.37,2013-01-16 07:45:00,
2013-01-16 02:47:00,44.9,44.4,29.99,SE,144,1.1,1.1,98,0.04,RA,,0.15,WeatherDisplay:10.37,2013-01-16 07:47:00,
2013-01-16 02:49:00,44.9,44.4,29.99,SSE,158,3.5,3.5,98,0.04,CLR,,0.15,WeatherDisplay:10.37,2013-01-16 07:49:00,
2013-01-16 02:50:00,44.9,44.4,29.99,SE,132,3.5,3.5,98,0.04,CLR,,0.15,WeatherDisplay:10.37,2013-01-16 07:50:00,
2013-01-16 02:53:00,44.9,44.4,29.99,ESE,103,3.5,3.5,98,0.04,CLR,,0.15,WeatherDisplay:10.37,2013-01-16 07:53:00,
2013-01-16 02:54:00,44.8,44.3,29.99,ESE,103,3.5,3.5,98,0.04,CLR,,0.15,WeatherDisplay:10.37,2013-01-16 07:54:00,
2013-01-16 02:55:00,44.8,44.3,29.99,East,87,4.0,4.0,98,0.04,CLR,,0.15,WeatherDisplay:10.37,2013-01-16 07:55:00,
2013-01-16 02:58:00,44.8,44.0,29.98,SE,132,3.5,3.5,97,0.04,CLR,,0.15,WeatherDisplay:10.37,2013-01-16 07:58:00,
2013-01-16 02:59:00,44.8,44.0,29.98,ESE,103,3.5,3.5,97,0.04,CLR,,0.15,WeatherDisplay:10.37,2013-01-16 07:59:00,
2013-01-16 03:00:00,44.8,44.0,29.98,ESE,109,2.0,4.0,97,0.00,CLR,,0.15,WeatherDisplay:10.37,2013-01-16 08:00:00,
2013-01-16 03:03:00,44.7,43.9,29.98,NE,37,2.3,2.3,97,0.05,RA,,0.16,WeatherDisplay:10.37,2013-01-16 08:03:00,
2013-01-16 03:04:00,44.7,43.9,29.99,North,3,1.1,1.1,97,0.05,RA,,0.16,WeatherDisplay:10.37,2013-01-16 08:04:00,
2013-01-16 03:05:00,44.7,43.9,29.98,North,2,1.1,1.1,97,0.05,RA,,0.16,WeatherDisplay:10.37,2013-01-16 08:05:00,
2013-01-16 03:09:00,44.7,43.9,29.98,SE,142,3.5,3.5,97,0.05,RA,,0.16,WeatherDisplay:10.37,2013-01-16 08:09:00,
2013-01-16 03:10:00,44.7,43.9,29.98,ESE,105,1.0,4.0,97,0.00,RA,,0.16,WeatherDisplay:10.37,2013-01-16 08:10:00,
2013-01-16 03:14:00,44.7,43.9,29.98,East,80,2.3,2.3,97,0.05,CLR,,0.16,WeatherDisplay:10.37,2013-01-16 08:14:00,
2013-01-16 03:15:00,44.7,43.9,29.98,East,84,2.3,2.3,97,0.04,CLR,,0.16,WeatherDisplay:10.37,2013-01-16 08:15:00,
2013-01-16 03:19:00,44.6,43.8,29.97,East,91,4.0,4.0,97,0.05,RA,,0.17,WeatherDisplay:10.37,2013-01-16 08:19:00,
2013-01-16 03:20:00,44.6,43.8,29.97,East,88,4.0,4.0,97,0.05,RA,,0.17,WeatherDisplay:10.37,2013-01-16 08:20:00,
2013-01-16 03:21:00,44.6,43.8,29.98,SSE,151,3.5,3.5,97,0.04,RA,,0.17,WeatherDisplay:10.37,2013-01-16 08:21:00,
2013-01-16 03:24:00,44.6,44.1,29.97,ESE,103,3.5,3.5,98,0.04,RA,,0.17,WeatherDisplay:10.37,2013-01-16 08:24:00,
2013-01-16 03:25:00,44.5,44.0,29.97,East,80,4.6,4.6,98,0.04,RA,,0.17,WeatherDisplay:10.37,2013-01-16 08:25:00,
2013-01-16 03:26:00,44.5,44.0,29.97,East,80,3.5,3.5,98,0.04,RA,,0.17,WeatherDisplay:10.37,2013-01-16 08:26:00,
2013-01-16 03:30:00,44.6,44.1,29.98,East,84,4.0,4.0,98,0.03,CLR,,0.17,WeatherDisplay:10.37,2013-01-16 08:30:00,
2013-01-16 03:31:00,44.6,44.1,29.98,East,91,3.5,3.5,98,0.03,CLR,,0.17,WeatherDisplay:10.37,2013-01-16 08:31:00,
2013-01-16 03:35:00,44.6,44.1,29.97,East,87,3.0,3.0,98,0.03,CLR,,0.17,WeatherDisplay:10.37,2013-01-16 08:35:00,
2013-01-16 03:36:00,44.6,44.1,29.97,East,85,3.5,3.5,98,0.03,CLR,,0.17,WeatherDisplay:10.37,2013-01-16 08:36:00,
2013-01-16 03:37:00,44.6,44.1,29.97,East,91,3.5,3.5,98,0.03,CLR,,0.17,WeatherDisplay:10.37,2013-01-16 08:37:00,
2013-01-16 03:40:00,44.6,44.1,29.97,ESE,103,3.5,3.5,98,0.02,CLR,,0.17,WeatherDisplay:10.37,2013-01-16 08:40:00,
2013-01-16 03:41:00,44.6,44.1,29.97,NE,52,2.0,2.0,98,0.02,CLR,,0.17,WeatherDisplay:10.37,2013-01-16 08:41:00,
2013-01-16 03:42:00,44.6,44.1,29.97,NE,53,2.3,2.3,98,0.02,CLR,,0.17,WeatherDisplay:10.37,2013-01-16 08:42:00,
2013-01-16 03:46:00,44.6,44.1,29.97,SE,146,0.0,0.0,98,0.03,RA,,0.18,WeatherDisplay:10.37,2013-01-16 08:46:00,
2013-01-16 03:47:00,44.6,44.1,29.97,SSE,147,1.1,1.1,98,0.03,RA,,0.18,WeatherDisplay:10.37,2013-01-16 08:47:00,
2013-01-16 03:51:00,44.6,44.1,29.97,East,98,2.3,2.3,98,0.03,RA,,0.18,WeatherDisplay:10.37,2013-01-16 08:51:00,
2013-01-16 03:52:00,44.6,44.1,29.97,East,98,2.3,2.3,98,0.03,RA,,0.18,WeatherDisplay:10.37,2013-01-16 08:52:00,
2013-01-16 03:57:00,44.5,43.7,29.97,East,87,3.5,3.5,97,0.03,CLR,,0.18,WeatherDisplay:10.37,2013-01-16 08:57:00,
2013-01-16 03:58:00,44.5,44.0,29.97,ESE,116,2.3,2.3,98,0.03,CLR,,0.18,WeatherDisplay:10.37,2013-01-16 08:58:00,
2013-01-16 04:02:00,44.5,44.0,29.97,East,101,1.1,1.1,98,0.04,RA,,0.19,WeatherDisplay:10.37,2013-01-16 09:02:00,
2013-01-16 04:03:00,44.5,44.0,29.97,SE,146,2.3,2.3,98,0.03,RA,,0.19,WeatherDisplay:10.37,2013-01-16 09:03:00,
2013-01-16 04:07:00,44.5,44.0,29.97,East,84,2.3,2.3,98,0.03,RA,,0.19,WeatherDisplay:10.37,2013-01-16 09:07:00,
2013-01-16 04:08:00,44.5,44.0,29.97,East,84,1.1,1.1,98,0.03,RA,,0.19,WeatherDisplay:10.37,2013-01-16 09:08:00,
2013-01-16 04:12:00,44.5,44.0,29.97,East,101,1.1,0.0,98,0.03,,,0.19,WeatherDisplay:10.37,2013-01-16 09:12:00,
2013-01-16 04:13:00,44.5,44.0,29.97,ESE,102,0.0,0.0,98,0.03,,,0.19,WeatherDisplay:10.37,2013-01-16 09:13:00,
2013-01-16 04:14:00,44.5,44.0,29.97,East,101,1.1,0.0,98,0.03,,,0.19,WeatherDisplay:10.37,2013-01-16 09:14:00,
2013-01-16 04:17:00,44.5,44.0,29.97,ENE,57,1.1,1.1,98,0.04,RA,,0.20,WeatherDisplay:10.37,2013-01-16 09:17:00,
2013-01-16 04:19:00,44.5,44.0,29.97,SE,140,2.3,2.3,98,0.03,RA,,0.20,WeatherDisplay:10.37,2013-01-16 09:19:00,
2013-01-16 04:22:00,44.5,44.0,29.96,East,91,3.5,3.5,98,0.03,RA,,0.20,WeatherDisplay:10.37,2013-01-16 09:22:00,
2013-01-16 04:24:00,44.6,44.1,29.96,East,82,4.0,4.0,98,0.03,RA,,0.20,WeatherDisplay:10.37,2013-01-16 09:24:00,
2013-01-16 04:25:00,44.6,44.1,29.96,SSE,151,3.5,3.5,98,0.03,RA,,0.20,WeatherDisplay:10.37,2013-01-16 09:25:00,
2013-01-16 04:27:00,44.5,44.0,29.96,SE,134,2.3,2.3,98,0.03,,,0.20,WeatherDisplay:10.37,2013-01-16 09:27:00,
2013-01-16 04:28:00,44.6,44.1,29.96,SE,134,2.3,2.3,98,0.03,,,0.20,WeatherDisplay:10.37,2013-01-16 09:28:00,
2013-01-16 04:30:00,44.6,44.1,29.95,East,89,2.3,2.3,98,0.03,,,0.20,WeatherDisplay:10.37,2013-01-16 09:30:00,
2013-01-16 04:32:00,44.6,44.1,29.95,ENE,75,5.0,5.0,98,0.03,,,0.20,WeatherDisplay:10.37,2013-01-16 09:32:00,
2013-01-16 04:33:00,44.6,44.1,29.95,ENE,71,4.0,4.0,98,0.03,,,0.20,WeatherDisplay:10.37,2013-01-16 09:33:00,
2013-01-16 04:35:00,44.5,44.0,29.95,ESE,105,3.5,3.5,98,0.04,RA,,0.21,WeatherDisplay:10.37,2013-01-16 09:35:00,
2013-01-16 04:36:00,44.5,44.0,29.95,East,94,3.5,3.5,98,0.04,RA,,0.21,WeatherDisplay:10.37,2013-01-16 09:36:00,
2013-01-16 04:37:00,44.6,44.1,29.94,East,87,4.0,4.0,98,0.04,RA,,0.21,WeatherDisplay:10.37,2013-01-16 09:37:00,
2013-01-16 04:38:00,44.6,44.1,29.94,East,87,3.5,3.7,98,0.04,RA,,0.21,WeatherDisplay:10.37,2013-01-16 09:38:00,
2013-01-16 04:40:00,44.5,44.0,29.94,ESE,107,4.0,4.0,98,0.04,RA,,0.21,WeatherDisplay:10.37,2013-01-16 09:40:00,
2013-01-16 04:41:00,44.5,44.0,29.94,East,80,3.5,3.5,98,0.04,RA,,0.21,WeatherDisplay:10.37,2013-01-16 09:41:00,
2013-01-16 04:43:00,44.5,44.0,29.94,ENE,65,3.5,3.5,98,0.03,RA,,0.21,WeatherDisplay:10.37,2013-01-16 09:43:00,
2013-01-16 04:45:00,44.5,44.0,29.94,East,92,4.6,4.6,98,0.03,,,0.21,WeatherDisplay:10.37,2013-01-16 09:45:00,
2013-01-16 04:46:00,44.5,44.0,29.94,East,82,3.5,3.5,98,0.03,,,0.21,WeatherDisplay:10.37,2013-01-16 09:46:00,
2013-01-16 04:48:00,44.5,44.0,29.93,East,91,4.6,4.6,98,0.03,,,0.21,WeatherDisplay:10.37,2013-01-16 09:48:00,
2013-01-16 04:51:00,44.5,44.0,29.93,ENE,78,3.5,3.5,98,0.03,,,0.21,WeatherDisplay:10.37,2013-01-16 09:51:00,
2013-01-16 04:53:00,44.6,44.1,29.93,East,94,2.3,2.3,98,0.03,,,0.21,WeatherDisplay:10.37,2013-01-16 09:53:00,
2013-01-16 04:56:00,44.6,44.1,29.93,East,85,3.5,3.5,98,0.03,,,0.21,WeatherDisplay:10.37,2013-01-16 09:56:00,
2013-01-16 04:58:00,44.6,44.1,29.93,East,82,1.1,1.1,98,0.03,,,0.21,WeatherDisplay:10.37,2013-01-16 09:58:00,
2013-01-16 05:01:00,44.7,44.2,29.93,East,93,2.0,2.0,98,0.02,,,0.21,WeatherDisplay:10.37,2013-01-16 10:01:00,
2013-01-16 05:03:00,44.7,44.2,29.93,East,84,2.3,2.3,98,0.02,,,0.21,WeatherDisplay:10.37,2013-01-16 10:03:00,
2013-01-16 05:06:00,44.7,44.2,29.93,East,87,2.3,2.3,98,0.02,,,0.21,WeatherDisplay:10.37,2013-01-16 10:06:00,
2013-01-16 05:07:00,44.7,44.2,29.93,SE,139,3.5,3.5,98,0.02,,,0.21,WeatherDisplay:10.37,2013-01-16 10:07:00,
2013-01-16 05:08:00,44.7,44.2,29.93,East,91,2.3,2.3,98,0.02,,,0.21,WeatherDisplay:10.37,2013-01-16 10:08:00,
2013-01-16 05:12:00,44.7,44.2,29.93,NNE,16,1.1,1.1,98,0.02,,,0.21,WeatherDisplay:10.37,2013-01-16 10:12:00,
2013-01-16 05:14:00,44.6,43.8,29.93,East,92,3.5,3.5,97,0.02,,,0.21,WeatherDisplay:10.37,2013-01-16 10:14:00,
2013-01-16 05:17:00,44.7,43.9,29.93,East,96,2.3,2.3,97,0.01,,,0.21,WeatherDisplay:10.37,2013-01-16 10:17:00,
2013-01-16 05:19:00,44.7,43.9,29.93,East,96,1.1,1.1,97,0.01,,,0.21,WeatherDisplay:10.37,2013-01-16 10:19:00,
2013-01-16 05:22:00,44.7,44.2,29.93,East,83,2.3,2.3,98,0.01,,,0.21,WeatherDisplay:10.37,2013-01-16 10:22:00,
2013-01-16 05:24:00,44.7,44.2,29.93,East,93,3.5,3.5,98,0.01,,,0.21,WeatherDisplay:10.37,2013-01-16 10:24:00,
2013-01-16 05:27:00,44.7,44.2,29.93,SE,125,3.5,3.5,98,0.01,,,0.21,WeatherDisplay:10.37,2013-01-16 10:27:00,
2013-01-16 05:29:00,44.7,43.9,29.93,SE,133,2.3,2.3,97,0.01,,,0.21,WeatherDisplay:10.37,2013-01-16 10:29:00,
2013-01-16 05:32:00,44.7,43.9,29.93,SE,136,2.3,2.3,97,0.01,,,0.21,WeatherDisplay:10.37,2013-01-16 10:32:00,
2013-01-16 05:34:00,44.7,43.9,29.93,ESE,108,3.5,3.5,97,0.00,,,0.21,WeatherDisplay:10.37,2013-01-16 10:34:00,
2013-01-16 05:37:00,44.7,43.9,29.93,ESE,118,3.5,3.5,97,0.00,,,0.21,WeatherDisplay:10.37,2013-01-16 10:37:00,
2013-01-16 05:39:00,44.7,43.9,29.93,SE,146,3.5,3.5,97,0.00,,,0.21,WeatherDisplay:10.37,2013-01-16 10:39:00,
2013-01-16 05:43:00,44.6,43.8,29.92,East,90,3.5,3.5,97,0.00,,,0.21,WeatherDisplay:10.37,2013-01-16 10:43:00,
2013-01-16 05:44:00,44.6,43.8,29.92,ESE,120,2.3,2.3,97,0.00,,,0.21,WeatherDisplay:10.37,2013-01-16 10:44:00,
2013-01-16 05:45:00,44.6,43.8,29.92,SE,125,2.3,2.3,97,0.00,,,0.21,WeatherDisplay:10.37,2013-01-16 10:45:00,
2013-01-16 05:48:00,44.6,43.8,29.92,SE,127,3.5,3.5,97,0.00,,,0.21,WeatherDisplay:10.37,2013-01-16 10:48:00,
2013-01-16 05:50:00,44.6,43.8,29.92,ESE,116,1.0,3.0,97,0.00,,,0.21,WeatherDisplay:10.37,2013-01-16 10:50:00,
2013-01-16 05:53:00,44.6,43.8,29.92,ENE,70,4.6,4.6,97,0.00,,,0.21,WeatherDisplay:10.37,2013-01-16 10:53:00,
2013-01-16 05:55:00,44.6,43.8,29.92,SE,130,3.5,3.5,97,0.00,,,0.21,WeatherDisplay:10.37,2013-01-16 10:55:00,
2013-01-16 05:58:00,44.6,43.8,29.92,ESE,102,1.1,0.0,97,0.00,,,0.21,WeatherDisplay:10.37,2013-01-16 10:58:00,
2013-01-16 06:00:00,44.7,43.9,29.92,ESE,102,1.1,1.1,97,0.00,,,0.21,WeatherDisplay:10.37,2013-01-16 11:00:00,
2013-01-16 06:03:00,44.7,43.9,29.92,East,101,1.0,1.0,97,0.00,,,0.21,WeatherDisplay:10.37,2013-01-16 11:03:00,
2013-01-16 06:05:00,44.7,43.9,29.92,ESE,120,1.1,1.1,97,0.00,,,0.21,WeatherDisplay:10.37,2013-01-16 11:05:00,
2013-01-16 06:08:00,44.7,43.9,29.92,SSE,151,1.1,1.1,97,0.00,,,0.21,WeatherDisplay:10.37,2013-01-16 11:08:00,
2013-01-16 06:10:00,44.7,43.9,29.92,ENE,77,3.0,3.0,97,0.00,,,0.21,WeatherDisplay:10.37,2013-01-16 11:10:00,
2013-01-16 06:14:00,44.8,44.0,29.92,SE,136,2.3,2.3,97,0.00,,,0.21,WeatherDisplay:10.37,2013-01-16 11:14:00,
2013-01-16 06:15:00,44.8,44.0,29.92,East,85,2.3,2.3,97,0.00,,,0.21,WeatherDisplay:10.37,2013-01-16 11:15:00,
2013-01-16 06:16:00,44.8,44.3,29.92,ESE,110,2.3,2.3,98,0.00,,,0.21,WeatherDisplay:10.37,2013-01-16 11:16:00,
2013-01-16 06:19:00,44.9,44.4,29.92,East,84,2.3,2.3,98,0.00,,,0.21,WeatherDisplay:10.37,2013-01-16 11:19:00,
2013-01-16 06:21:00,44.9,44.1,29.92,East,82,3.5,3.5,97,0.00,,,0.21,WeatherDisplay:10.37,2013-01-16 11:21:00,
2013-01-16 06:24:00,44.9,44.1,29.93,NW,325,1.1,1.4,97,0.01,RA,,0.22,WeatherDisplay:10.37,2013-01-16 11:24:00,
2013-01-16 06:25:00,44.9,44.1,29.93,NNW,348,2.3,2.3,97,0.01,RA,,0.22,WeatherDisplay:10.37,2013-01-16 11:25:00,
2013-01-16 06:26:00,44.9,44.1,29.93,ENE,61,2.3,2.3,97,0.01,RA,,0.22,WeatherDisplay:10.37,2013-01-16 11:26:00,
2013-01-16 06:27:00,44.9,44.1,29.93,ENE,61,2.3,2.3,97,0.01,RA,,0.22,WeatherDisplay:10.37,2013-01-16 11:27:00,
2013-01-16 06:29:00,44.9,44.1,29.92,SE,124,3.5,3.5,97,0.02,RA,,0.23,WeatherDisplay:10.37,2013-01-16 11:29:00,
2013-01-16 06:30:00,44.9,44.1,29.92,East,91,1.1,1.1,97,0.02,RA,,0.23,WeatherDisplay:10.37,2013-01-16 11:30:00,
2013-01-16 06:31:00,44.9,44.1,29.93,WNW,295,2.3,2.3,97,0.02,RA,,0.23,WeatherDisplay:10.37,2013-01-16 11:31:00,
2013-01-16 06:32:00,44.9,44.1,29.94,NW,320,4.0,4.0,97,0.02,RA,,0.23,WeatherDisplay:10.37,2013-01-16 11:32:00,
2013-01-16 06:34:00,44.9,44.1,29.94,NW,312,3.5,3.5,97,0.02,RA,,0.24,WeatherDisplay:10.37,2013-01-16 11:34:00,
2013-01-16 06:35:00,44.9,44.1,29.94,NW,313,4.0,4.0,97,0.03,RA,,0.24,WeatherDisplay:10.37,2013-01-16 11:35:00,
2013-01-16 06:37:00,45.0,44.2,29.96,WSW,257,4.6,4.6,97,0.03,RA,,0.24,WeatherDisplay:10.37,2013-01-16 11:37:00,
2013-01-16 06:39:00,45.1,44.6,29.95,West,271,3.5,3.5,98,0.04,RA,,0.25,WeatherDisplay:10.37,2013-01-16 11:39:00,
2013-01-16 06:41:00,45.2,44.7,29.95,WNW,300,3.5,3.5,98,0.05,RA,,0.26,WeatherDisplay:10.37,2013-01-16 11:41:00,
2013-01-16 06:42:00,45.3,44.8,29.95,WSW,255,4.6,4.6,98,0.06,RA,,0.27,WeatherDisplay:10.37,2013-01-16 11:42:00,
2013-01-16 06:43:00,45.4,44.9,29.95,WSW,256,1.0,0.0,98,0.06,RA,,0.27,WeatherDisplay:10.37,2013-01-16 11:43:00,
2013-01-16 06:44:00,45.6,45.1,29.95,WSW,244,2.3,2.3,98,0.07,RA,,0.28,WeatherDisplay:10.37,2013-01-16 11:44:00,
2013-01-16 06:46:00,45.7,45.2,29.95,SW,214,3.5,3.5,98,0.07,RA,,0.29,WeatherDisplay:10.37,2013-01-16 11:46:00,
2013-01-16 06:47:00,45.8,45.3,29.95,SW,217,2.3,2.3,98,0.08,RA,,0.29,WeatherDisplay:10.37,2013-01-16 11:47:00,
2013-01-16 06:48:00,45.8,45.3,29.95,WSW,244,1.1,1.1,98,0.08,RA,,0.29,WeatherDisplay:10.37,2013-01-16 11:48:00,
2013-01-16 06:50:00,46.0,45.5,29.96,WSW,238,2.3,2.3,98,0.09,RA,,0.30,WeatherDisplay:10.37,2013-01-16 11:50:00,
2013-01-16 06:51:00,46.1,45.6,29.95,WSW,238,2.3,2.3,98,0.09,RA,,0.30,WeatherDisplay:10.37,2013-01-16 11:51:00,
2013-01-16 06:52:00,46.1,45.6,29.96,WSW,237,1.1,0.0,98,0.10,RA,,0.31,WeatherDisplay:10.37,2013-01-16 11:52:00,
2013-01-16 06:53:00,46.1,45.6,29.96,WSW,238,1.1,1.1,98,0.10,RA,,0.31,WeatherDisplay:10.37,2013-01-16 11:53:00,
2013-01-16 06:55:00,46.3,45.8,29.95,SE,139,2.3,2.3,98,0.10,RA,,0.32,WeatherDisplay:10.37,2013-01-16 11:55:00,
2013-01-16 06:56:00,46.3,45.8,29.95,SE,139,2.3,2.3,98,0.11,RA,,0.32,WeatherDisplay:10.37,2013-01-16 11:56:00,
2013-01-16 06:58:00,46.3,45.8,29.95,SE,139,0.0,0.0,98,0.11,RA,,0.32,WeatherDisplay:10.37,2013-01-16 11:58:00,
2013-01-16 07:00:00,46.4,45.9,29.95,SE,139,1.0,1.0,98,0.12,RA,,0.33,WeatherDisplay:10.37,2013-01-16 12:00:00,
2013-01-16 07:01:00,46.4,45.9,29.95,SE,139,1.1,0.0,98,0.12,RA,,0.33,WeatherDisplay:10.37,2013-01-16 12:01:00,
2013-01-16 07:03:00,46.4,45.9,29.95,SE,139,0.0,0.0,98,0.12,RA,,0.34,WeatherDisplay:10.37,2013-01-16 12:03:00,
2013-01-16 07:06:00,46.5,46.0,29.96,SE,139,0.0,0.0,98,0.13,RA,,0.34,WeatherDisplay:10.37,2013-01-16 12:06:00,
2013-01-16 07:08:00,46.5,46.0,29.96,SE,139,0.0,0.0,98,0.13,RA,,0.35,WeatherDisplay:10.37,2013-01-16 12:08:00,
2013-01-16 07:09:00,46.5,46.0,29.96,SE,139,0.0,0.0,98,0.14,RA,,0.35,WeatherDisplay:10.37,2013-01-16 12:09:00,
2013-01-16 07:11:00,46.6,46.1,29.96,SE,139,0.0,0.0,98,0.14,RA,,0.35,WeatherDisplay:10.37,2013-01-16 12:11:00,
2013-01-16 07:14:00,46.6,46.1,29.97,SE,140,0.0,0.0,98,0.14,RA,,0.35,WeatherDisplay:10.37,2013-01-16 12:14:00,
2013-01-16 07:16:00,46.6,46.1,29.97,SE,140,0.0,0.0,98,0.15,RA,,0.36,WeatherDisplay:10.37,2013-01-16 12:16:00,
2013-01-16 07:19:00,46.6,46.1,29.98,SE,139,0.0,0.0,98,0.16,RA,,0.37,WeatherDisplay:10.37,2013-01-16 12:19:00,
2013-01-16 07:21:00,46.7,46.2,29.98,SE,139,0.0,0.0,98,0.16,RA,,0.38,WeatherDisplay:10.37,2013-01-16 12:21:00,
2013-01-16 07:24:00,46.7,46.2,29.99,SE,140,0.0,0.0,98,0.16,RA,,0.38,WeatherDisplay:10.37,2013-01-16 12:24:00,
2013-01-16 07:25:00,46.7,46.2,29.99,SE,139,0.0,0.0,98,0.01,RA,,0.39,WeatherDisplay:10.37,2013-01-16 12:25:00,
2013-01-16 07:26:00,46.7,46.2,29.99,SE,140,0.0,0.0,98,0.17,RA,,0.39,WeatherDisplay:10.37,2013-01-16 12:26:00,
2013-01-16 07:27:00,46.7,46.2,29.99,SE,140,0.0,0.0,98,0.17,RA,,0.39,WeatherDisplay:10.37,2013-01-16 12:27:00,
2013-01-16 07:30:00,46.7,46.2,29.99,SE,139,0.0,0.0,98,0.17,RA,,0.40,WeatherDisplay:10.37,2013-01-16 12:30:00,
2013-01-16 07:31:00,46.7,46.2,29.99,SE,139,0.0,0.0,98,0.18,RA,,0.41,WeatherDisplay:10.37,2013-01-16 12:31:00,
2013-01-16 07:32:00,46.7,46.2,29.99,SE,139,0.0,0.0,98,0.18,RA,,0.41,WeatherDisplay:10.37,2013-01-16 12:32:00,
2013-01-16 07:35:00,46.7,46.2,29.98,SE,139,0.0,0.0,98,0.19,RA,,0.43,WeatherDisplay:10.37,2013-01-16 12:35:00,
2013-01-16 07:36:00,46.7,46.2,29.98,SE,139,1.1,0.0,98,0.19,RA,,0.43,WeatherDisplay:10.37,2013-01-16 12:36:00,
2013-01-16 07:38:00,46.7,46.2,29.98,SE,139,1.0,1.0,98,0.20,RA,,0.44,WeatherDisplay:10.37,2013-01-16 12:38:00,
2013-01-16 07:40:00,46.7,46.2,29.98,SE,144,4.6,4.6,98,0.19,RA,,0.44,WeatherDisplay:10.37,2013-01-16 12:40:00,
2013-01-16 07:41:00,46.7,46.2,29.98,SE,132,1.1,1.1,98,0.18,RA,,0.44,WeatherDisplay:10.37,2013-01-16 12:41:00,
2013-01-16 07:42:00,46.7,46.2,29.98,ESE,109,1.1,1.1,98,0.17,RA,,0.44,WeatherDisplay:10.37,2013-01-16 12:42:00,
2013-01-16 07:43:00,46.7,46.2,29.98,SSW,205,1.1,1.1,98,0.17,RA,,0.45,WeatherDisplay:10.37,2013-01-16 12:43:00,
2013-01-16 07:45:00,46.6,46.1,29.98,SE,144,1.0,1.0,98,0.17,RA,,0.45,WeatherDisplay:10.37,2013-01-16 12:45:00,
2013-01-16 07:47:00,46.5,46.0,29.99,SE,144,1.1,1.1,98,0.17,RA,,0.45,WeatherDisplay:10.37,2013-01-16 12:47:00,
2013-01-16 07:48:00,46.5,46.0,29.99,SSE,147,1.1,0.0,98,0.16,RA,,0.45,WeatherDisplay:10.37,2013-01-16 12:48:00,
2013-01-16 07:51:00,46.5,46.0,29.99,SSE,147,0.0,0.0,98,0.16,RA,,0.46,WeatherDisplay:10.37,2013-01-16 12:51:00,
2013-01-16 07:52:00,46.5,46.0,29.99,SSE,147,0.0,0.0,98,0.15,RA,,0.46,WeatherDisplay:10.37,2013-01-16 12:52:00,
2013-01-16 07:53:00,46.4,45.9,30.00,SW,224,0.0,0.0,98,0.15,RA,,0.46,WeatherDisplay:10.37,2013-01-16 12:53:00,
2013-01-16 07:56:00,46.4,45.9,30.00,West,269,1.0,0.0,98,0.14,RA,,0.47,WeatherDisplay:10.37,2013-01-16 12:56:00,
2013-01-16 07:57:00,46.4,45.9,30.01,West,268,1.1,1.1,98,0.15,RA,,0.47,WeatherDisplay:10.37,2013-01-16 12:57:00,
2013-01-16 07:58:00,46.5,46.0,30.01,West,269,1.1,0.0,98,0.15,RA,,0.47,WeatherDisplay:10.37,2013-01-16 12:58:00,
2013-01-16 08:01:00,46.5,46.0,30.01,West,264,1.1,1.1,98,0.15,RA,,0.48,WeatherDisplay:10.37,2013-01-16 13:01:00,
2013-01-16 08:02:00,46.6,46.1,30.01,West,264,1.1,1.1,98,0.15,RA,,0.48,WeatherDisplay:10.37,2013-01-16 13:02:00,
2013-01-16 08:04:00,46.6,46.1,30.01,West,267,1.1,1.1,98,0.16,RA,,0.49,WeatherDisplay:10.37,2013-01-16 13:04:00,
2013-01-16 08:07:00,46.6,46.1,30.01,NNW,342,1.1,1.1,98,0.16,RA,,0.50,WeatherDisplay:10.37,2013-01-16 13:07:00,
2013-01-16 08:08:00,46.6,46.1,30.01,North,357,1.1,1.1,98,0.17,RA,,0.51,WeatherDisplay:10.37,2013-01-16 13:08:00,
2013-01-16 08:09:00,46.6,46.1,30.01,NE,47,1.1,1.2,98,0.17,RA,,0.51,WeatherDisplay:10.37,2013-01-16 13:09:00,
2013-01-16 08:12:00,46.6,46.1,30.01,NE,47,1.1,1.1,98,0.17,RA,,0.52,WeatherDisplay:10.37,2013-01-16 13:12:00,
2013-01-16 08:13:00,46.6,46.1,30.01,NE,47,0.0,0.0,98,0.17,RA,,0.52,WeatherDisplay:10.37,2013-01-16 13:13:00,
2013-01-16 08:14:00,46.5,46.0,30.00,NE,47,1.1,0.0,98,0.17,RA,,0.52,WeatherDisplay:10.37,2013-01-16 13:14:00,
2013-01-16 08:17:00,46.6,46.1,30.01,NE,47,1.1,1.1,98,0.15,RA,,0.52,WeatherDisplay:10.37,2013-01-16 13:17:00,
2013-01-16 08:18:00,46.6,46.1,30.01,NE,47,0.0,0.0,98,0.15,RA,,0.52,WeatherDisplay:10.37,2013-01-16 13:18:00,
2013-01-16 08:20:00,46.6,46.1,30.01,NE,47,0.0,0.0,98,0.16,RA,,0.53,WeatherDisplay:10.37,2013-01-16 13:20:00,
2013-01-16 08:23:00,46.6,46.1,30.01,NE,47,0.0,0.0,98,0.15,RA,,0.53,WeatherDisplay:10.37,2013-01-16 13:23:00,
2013-01-16 08:24:00,46.6,46.1,30.01,NE,47,0.0,0.0,98,0.15,RA,,0.53,WeatherDisplay:10.37,2013-01-16 13:24:00,
2013-01-16 08:25:00,46.6,46.1,30.01,NE,47,0.0,0.0,98,0.14,RA,,0.53,WeatherDisplay:10.37,2013-01-16 13:25:00,
2013-01-16 08:28:00,46.7,46.2,30.02,NE,47,0.0,0.0,98,0.14,RA,,0.53,WeatherDisplay:10.37,2013-01-16 13:28:00,
2013-01-16 08:29:00,46.6,46.1,30.02,NE,47,0.0,0.0,98,0.13,RA,,0.53,WeatherDisplay:10.37,2013-01-16 13:29:00,
2013-01-16 08:31:00,46.7,46.2,30.02,NE,47,0.0,0.0,98,0.12,CLR,,0.53,WeatherDisplay:10.37,2013-01-16 13:31:00,
2013-01-16 08:33:00,46.7,46.2,30.02,NE,47,0.0,0.0,98,0.12,RA,,0.54,WeatherDisplay:10.37,2013-01-16 13:33:00,
2013-01-16 08:34:00,46.7,46.2,30.02,NE,48,0.0,0.0,98,0.12,RA,,0.54,WeatherDisplay:10.37,2013-01-16 13:34:00,
2013-01-16 08:36:00,46.7,46.2,30.02,NE,47,0.0,0.0,98,0.11,RA,,0.55,WeatherDisplay:10.37,2013-01-16 13:36:00,
2013-01-16 08:38:00,46.7,46.2,30.02,NE,47,0.0,0.0,98,0.11,RA,,0.55,WeatherDisplay:10.37,2013-01-16 13:38:00,
2013-01-16 08:40:00,46.7,46.2,30.03,NE,47,0.0,0.0,98,0.11,RA,,0.55,WeatherDisplay:10.37,2013-01-16 13:40:00,
2013-01-16 08:42:00,46.8,46.3,30.02,NE,47,0.0,0.0,98,0.11,RA,,0.55,WeatherDisplay:10.37,2013-01-16 13:42:00,
2013-01-16 08:43:00,46.8,46.3,30.03,NE,46,0.0,0.0,98,0.11,RA,,0.56,WeatherDisplay:10.37,2013-01-16 13:43:00,
2013-01-16 08:45:00,46.8,46.3,30.03,NE,46,0.0,0.0,98,0.11,RA,,0.56,WeatherDisplay:10.37,2013-01-16 13:45:00,
2013-01-16 08:47:00,46.8,46.3,30.03,NE,46,0.0,0.0,98,0.11,RA,,0.56,WeatherDisplay:10.37,2013-01-16 13:47:00,
2013-01-16 08:48:00,46.9,46.4,30.03,NE,46,0.0,0.0,98,0.11,RA,,0.57,WeatherDisplay:10.37,2013-01-16 13:48:00,
2013-01-16 08:49:00,46.9,46.4,30.03,NE,46,0.0,0.0,98,0.11,RA,,0.57,WeatherDisplay:10.37,2013-01-16 13:49:00,
2013-01-16 08:50:00,46.9,46.4,30.03,NE,46,0.0,0.0,98,0.11,RA,,0.57,WeatherDisplay:10.37,2013-01-16 13:50:00,
2013-01-16 08:52:00,46.9,46.4,30.04,NE,46,0.0,0.0,98,0.11,RA,,0.57,WeatherDisplay:10.37,2013-01-16 13:52:00,
2013-01-16 08:53:00,46.9,46.4,30.04,NE,46,0.0,0.0,98,0.11,RA,,0.57,WeatherDisplay:10.37,2013-01-16 13:53:00,
2013-01-16 08:54:00,46.9,46.4,30.04,NE,46,0.0,0.0,98,0.12,RA,,0.58,WeatherDisplay:10.37,2013-01-16 13:54:00,
2013-01-16 08:55:00,47.0,46.5,30.04,NE,46,0.0,0.0,98,0.12,RA,,0.58,WeatherDisplay:10.37,2013-01-16 13:55:00,
2013-01-16 08:57:00,47.0,46.5,30.05,WNW,302,1.0,1.0,98,0.11,RA,,0.58,WeatherDisplay:10.37,2013-01-16 13:57:00,
2013-01-16 08:59:00,47.0,46.5,30.05,WNW,303,1.1,1.1,98,0.11,RA,,0.58,WeatherDisplay:10.37,2013-01-16 13:59:00,
2013-01-16 09:00:00,47.0,46.5,30.05,NW,304,0.0,0.0,98,0.11,RA,,0.58,WeatherDisplay:10.37,2013-01-16 14:00:00,
2013-01-16 09:02:00,47.1,46.6,30.05,WNW,302,0.0,0.0,98,0.11,RA,,0.59,WeatherDisplay:10.37,2013-01-16 14:02:00,
2013-01-16 09:04:00,47.1,46.6,30.05,WNW,302,0.0,0.0,98,0.10,RA,,0.59,WeatherDisplay:10.37,2013-01-16 14:04:00,
2013-01-16 09:05:00,47.1,46.6,30.05,WNW,302,0.0,0.0,98,0.10,RA,,0.59,WeatherDisplay:10.37,2013-01-16 14:05:00,
2013-01-16 09:08:00,47.2,46.7,30.05,WNW,300,0.0,0.0,98,0.09,RA,,0.60,WeatherDisplay:10.37,2013-01-16 14:08:00,
2013-01-16 09:09:00,47.2,46.7,30.06,WNW,300,0.0,0.0,98,0.09,RA,,0.60,WeatherDisplay:10.37,2013-01-16 14:09:00,
2013-01-16 09:10:00,47.2,46.7,30.05,WNW,300,0.0,0.0,98,0.09,RA,,0.60,WeatherDisplay:10.37,2013-01-16 14:10:00,
2013-01-16 09:11:00,47.2,46.7,30.05,WNW,300,0.0,0.0,98,0.08,RA,,0.60,WeatherDisplay:10.37,2013-01-16 14:11:00,
2013-01-16 09:13:00,47.3,46.8,30.05,WNW,300,0.0,0.0,98,0.08,RA,,0.60,WeatherDisplay:10.37,2013-01-16 14:13:00,
2013-01-16 09:15:00,47.3,46.8,30.05,WNW,300,0.0,0.0,98,0.08,RA,,0.60,WeatherDisplay:10.37,2013-01-16 14:15:00,
2013-01-16 09:16:00,47.4,46.9,30.05,WNW,300,0.0,0.0,98,0.08,RA,,0.60,WeatherDisplay:10.37,2013-01-16 14:16:00,
2013-01-16 09:17:00,47.5,47.0,30.05,WNW,300,0.0,0.0,98,0.08,CLR,,0.61,WeatherDisplay:10.37,2013-01-16 14:17:00,
2013-01-16 09:19:00,47.5,47.0,30.04,WNW,300,0.0,0.0,98,0.09,RA,,0.61,WeatherDisplay:10.37,2013-01-16 14:19:00,
2013-01-16 09:20:00,47.6,47.1,30.04,WNW,300,0.0,0.0,98,0.08,RA,,0.61,WeatherDisplay:10.37,2013-01-16 14:20:00,
2013-01-16 09:21:00,47.6,47.1,30.05,WNW,300,0.0,0.0,98,0.08,RA,,0.61,WeatherDisplay:10.37,2013-01-16 14:21:00,
2013-01-16 09:22:00,47.6,47.1,30.05,WNW,300,0.0,0.0,98,0.08,RA,,0.61,WeatherDisplay:10.37,2013-01-16 14:22:00,
2013-01-16 09:24:00,47.7,47.2,30.05,WNW,300,0.0,0.0,98,0.08,RA,,0.61,WeatherDisplay:10.37,2013-01-16 14:24:00,
2013-01-16 09:25:00,47.7,47.2,30.05,WNW,300,0.0,0.0,98,0.08,RA,,0.61,WeatherDisplay:10.37,2013-01-16 14:25:00,
2013-01-16 09:26:00,47.7,47.2,30.05,WNW,300,0.0,0.0,98,0.08,RA,,0.61,WeatherDisplay:10.37,2013-01-16 14:26:00,
2013-01-16 09:27:00,47.7,47.2,30.05,WNW,300,0.0,0.0,98,0.08,RA,,0.61,WeatherDisplay:10.37,2013-01-16 14:27:00,
2013-01-16 09:29:00,47.7,47.2,30.05,WNW,300,0.0,0.0,98,0.08,CLR,,0.61,WeatherDisplay:10.37,2013-01-16 14:29:00,
2013-01-16 09:30:00,47.7,47.2,30.05,WNW,300,0.0,0.0,98,0.08,CLR,,0.61,WeatherDisplay:10.37,2013-01-16 14:30:00,
2013-01-16 09:31:00,47.8,47.3,30.05,WNW,300,0.0,0.0,98,0.08,CLR,,0.61,WeatherDisplay:10.37,2013-01-16 14:31:00,
2013-01-16 09:32:00,47.8,47.3,30.05,WNW,300,0.0,0.0,98,0.07,CLR,,0.61,WeatherDisplay:10.37,2013-01-16 14:32:00,
2013-01-16 09:34:00,47.9,47.4,30.05,WNW,300,0.0,0.0,98,0.07,CLR,,0.61,WeatherDisplay:10.37,2013-01-16 14:34:00,
2013-01-16 09:35:00,47.9,47.4,30.05,WNW,300,0.0,0.0,98,0.07,CLR,,0.61,WeatherDisplay:10.37,2013-01-16 14:35:00,
2013-01-16 09:36:00,47.9,47.4,30.05,WNW,300,0.0,0.0,98,0.07,CLR,,0.61,WeatherDisplay:10.37,2013-01-16 14:36:00,
2013-01-16 09:37:00,48.0,47.5,30.05,WNW,300,0.0,0.0,98,0.06,CLR,,0.62,WeatherDisplay:10.37,2013-01-16 14:37:00,
2013-01-16 09:39:00,48.0,47.5,30.05,WNW,300,0.0,0.0,98,0.07,RA,,0.62,WeatherDisplay:10.37,2013-01-16 14:39:00,
2013-01-16 09:40:00,48.0,47.5,30.05,WNW,300,0.0,0.0,98,0.07,RA,,0.62,WeatherDisplay:10.37,2013-01-16 14:40:00,
2013-01-16 09:42:00,48.0,47.5,30.05,WNW,300,0.0,0.0,98,0.07,RA,,0.62,WeatherDisplay:10.37,2013-01-16 14:42:00,
2013-01-16 09:43:00,48.0,47.5,30.05,WNW,300,1.1,1.1,98,0.07,RA,,0.62,WeatherDisplay:10.37,2013-01-16 14:43:00,
2013-01-16 09:45:00,48.1,47.6,30.04,WNW,300,0.0,0.0,98,0.06,RA,,0.62,WeatherDisplay:10.37,2013-01-16 14:45:00,
2013-01-16 09:46:00,48.2,47.7,30.04,WNW,300,0.0,0.0,98,0.06,RA,,0.62,WeatherDisplay:10.37,2013-01-16 14:46:00,
2013-01-16 09:47:00,48.2,47.7,30.04,WNW,301,0.0,0.0,98,0.06,RA,,0.62,WeatherDisplay:10.37,2013-01-16 14:47:00,
2013-01-16 09:48:00,48.2,47.7,30.04,WNW,300,0.0,0.0,98,0.06,CLR,,0.62,WeatherDisplay:10.37,2013-01-16 14:48:00,
2013-01-16 09:50:00,48.3,47.8,30.04,WNW,300,1.1,0.0,98,0.05,CLR,,0.62,WeatherDisplay:10.37,2013-01-16 14:50:00,
2013-01-16 09:51:00,48.4,47.9,30.04,WNW,298,1.1,1.1,98,0.05,CLR,,0.62,WeatherDisplay:10.37,2013-01-16 14:51:00,
2013-01-16 09:52:00,48.4,47.9,30.03,WNW,300,1.1,1.1,98,0.05,CLR,,0.62,WeatherDisplay:10.37,2013-01-16 14:52:00,
2013-01-16 09:53:00,48.4,47.9,30.03,WNW,300,1.1,0.0,98,0.05,CLR,,0.62,WeatherDisplay:10.37,2013-01-16 14:53:00,
2013-01-16 09:55:00,48.5,48.0,30.03,WNW,299,1.1,1.1,98,0.04,CLR,,0.62,WeatherDisplay:10.37,2013-01-16 14:55:00,
2013-01-16 09:56:00,48.5,48.0,30.04,WNW,299,0.0,0.0,98,0.04,CLR,,0.62,WeatherDisplay:10.37,2013-01-16 14:56:00,
2013-01-16 09:57:00,48.6,48.1,30.04,WNW,300,0.0,0.0,98,0.04,CLR,,0.62,WeatherDisplay:10.37,2013-01-16 14:57:00,
2013-01-16 09:58:00,48.6,48.1,30.04,WNW,299,0.0,0.0,98,0.04,CLR,,0.62,WeatherDisplay:10.37,2013-01-16 14:58:00,
2013-01-16 10:00:00,48.7,48.2,30.04,WNW,299,0.0,0.0,98,0.04,CLR,,0.62,WeatherDisplay:10.37,2013-01-16 15:00:00,
2013-01-16 10:01:00,48.8,48.3,30.04,WNW,300,0.0,0.0,98,0.04,CLR,,0.62,WeatherDisplay:10.37,2013-01-16 15:01:00,
2013-01-16 10:02:00,48.8,48.3,30.03,WNW,299,0.0,0.0,98,0.03,CLR,,0.62,WeatherDisplay:10.37,2013-01-16 15:02:00,
2013-01-16 10:03:00,48.9,48.6,30.03,WNW,299,0.0,0.1,99,0.03,CLR,,0.62,WeatherDisplay:10.37,2013-01-16 15:03:00,
2013-01-16 10:06:00,49.1,48.8,30.03,WNW,300,1.1,1.1,99,0.03,CLR,,0.62,WeatherDisplay:10.37,2013-01-16 15:06:00,
2013-01-16 10:07:00,49.3,49.0,30.03,SE,130,3.0,3.0,99,0.02,CLR,,0.62,WeatherDisplay:10.37,2013-01-16 15:07:00,
2013-01-16 10:08:00,49.4,49.1,30.02,West,281,3.5,3.5,99,0.02,CLR,,0.62,WeatherDisplay:10.37,2013-01-16 15:08:00,
2013-01-16 10:11:00,49.7,49.4,30.02,SSE,163,1.1,1.1,99,0.03,RA,,0.63,WeatherDisplay:10.37,2013-01-16 15:11:00,
2013-01-16 10:12:00,49.8,49.5,30.02,SSE,163,4.6,4.6,99,0.03,RA,,0.63,WeatherDisplay:10.37,2013-01-16 15:12:00,
2013-01-16 10:13:00,49.9,49.6,30.01,SE,124,3.5,3.5,99,0.03,RA,,0.63,WeatherDisplay:10.37,2013-01-16 15:13:00,
2013-01-16 10:16:00,50.0,49.7,30.01,South,177,2.3,2.3,99,0.03,RA,,0.63,WeatherDisplay:10.37,2013-01-16 15:16:00,
2013-01-16 10:17:00,50.0,49.7,30.01,East,88,2.0,2.0,99,0.03,RA,,0.63,WeatherDisplay:10.37,2013-01-16 15:17:00,
2013-01-16 10:18:00,50.0,49.7,30.01,SSE,165,2.3,2.3,99,0.02,RA,,0.63,WeatherDisplay:10.37,2013-01-16 15:18:00,
2013-01-16 10:21:00,49.9,49.6,30.01,SE,139,3.5,3.5,99,0.02,CLR,,0.63,WeatherDisplay:10.37,2013-01-16 15:21:00,
2013-01-16 10:22:00,49.8,49.3,30.01,SE,127,3.5,3.5,98,0.02,CLR,,0.63,WeatherDisplay:10.37,2013-01-16 15:22:00,
2013-01-16 10:24:00,49.7,49.2,30.02,East,101,3.5,3.5,98,0.02,CLR,,0.63,WeatherDisplay:10.37,2013-01-16 15:24:00,
2013-01-16 10:26:00,49.7,49.2,30.02,ESE,103,1.1,1.1,98,0.02,CLR,,0.63,WeatherDisplay:10.37,2013-01-16 15:26:00,
2013-01-16 10:27:00,49.7,49.2,30.02,ESE,103,1.1,1.1,98,0.02,CLR,,0.63,WeatherDisplay:10.37,2013-01-16 15:27:00,
2013-01-16 10:28:00,49.7,49.2,30.02,WSW,241,1.1,1.1,98,0.02,CLR,,0.63,WeatherDisplay:10.37,2013-01-16 15:28:00,
2013-01-16 10:29:00,49.8,49.3,30.02,WNW,295,2.3,2.3,98,0.02,CLR,,0.63,WeatherDisplay:10.37,2013-01-16 15:29:00,
2013-01-16 10:32:00,49.9,49.4,30.02,WNW,288,2.3,2.3,98,0.02,CLR,,0.63,WeatherDisplay:10.37,2013-01-16 15:32:00,
2013-01-16 10:33:00,49.9,49.4,30.02,WNW,288,2.3,2.3,98,0.02,CLR,,0.63,WeatherDisplay:10.37,2013-01-16 15:33:00,
2013-01-16 10:34:00,50.1,49.8,30.02,West,272,2.3,2.3,99,0.02,CLR,,0.63,WeatherDisplay:10.37,2013-01-16 15:34:00,
2013-01-16 10:37:00,50.1,49.8,30.02,West,272,0.0,0.0,99,0.02,CLR,,0.63,WeatherDisplay:10.37,2013-01-16 15:37:00,
2013-01-16 10:38:00,50.2,49.9,30.02,West,272,1.1,1.1,99,0.01,CLR,,0.63,WeatherDisplay:10.37,2013-01-16 15:38:00,
2013-01-16 10:39:00,50.2,49.9,30.01,West,272,1.1,0.0,99,0.01,CLR,,0.63,WeatherDisplay:10.37,2013-01-16 15:39:00,
2013-01-16 10:42:00,50.3,50.0,30.01,WNW,286,2.3,2.3,99,0.01,CLR,,0.63,WeatherDisplay:10.37,2013-01-16 15:42:00,
2013-01-16 10:43:00,50.4,50.1,30.01,WNW,286,2.3,2.3,99,0.01,CLR,,0.63,WeatherDisplay:10.37,2013-01-16 15:43:00,
2013-01-16 10:44:00,50.4,49.9,30.01,WNW,285,1.1,1.1,98,0.01,CLR,,0.63,WeatherDisplay:10.37,2013-01-16 15:44:00,
2013-01-16 10:47:00,50.4,49.9,30.01,WNW,286,0.0,0.0,98,0.01,CLR,,0.63,WeatherDisplay:10.37,2013-01-16 15:47:00,
2013-01-16 10:48:00,50.5,50.0,30.00,WNW,285,0.0,0.0,98,0.01,CLR,,0.63,WeatherDisplay:10.37,2013-01-16 15:48:00,
2013-01-16 10:50:00,50.6,50.3,30.00,WNW,285,0.0,0.0,99,0.01,CLR,,0.63,WeatherDisplay:10.37,2013-01-16 15:50:00,
2013-01-16 10:52:00,50.8,50.5,30.00,WNW,283,1.0,1.0,99,0.01,CLR,,0.63,WeatherDisplay:10.37,2013-01-16 15:52:00,
2013-01-16 10:53:00,50.8,50.5,30.00,WNW,285,1.1,0.0,99,0.01,CLR,,0.63,WeatherDisplay:10.37,2013-01-16 15:53:00,
2013-01-16 10:54:00,50.8,50.5,30.00,WNW,286,1.1,0.0,99,0.01,CLR,,0.63,WeatherDisplay:10.37,2013-01-16 15:54:00,
2013-01-16 10:55:00,50.8,50.3,30.00,WNW,285,0.0,0.0,98,0.01,CLR,,0.63,WeatherDisplay:10.37,2013-01-16 15:55:00,
2013-01-16 10:57:00,50.8,50.3,30.00,WNW,285,1.1,0.0,98,0.01,CLR,,0.63,WeatherDisplay:10.37,2013-01-16 15:57:00,
2013-01-16 10:58:00,50.8,50.3,29.99,WNW,286,0.0,0.0,98,0.01,CLR,,0.63,WeatherDisplay:10.37,2013-01-16 15:58:00,
2013-01-16 10:59:00,50.8,50.3,29.99,WNW,286,0.0,0.0,98,0.01,CLR,,0.63,WeatherDisplay:10.37,2013-01-16 15:59:00,
2013-01-16 11:00:00,50.9,50.4,29.99,WNW,285,0.0,0.0,98,0.01,CLR,,0.63,WeatherDisplay:10.37,2013-01-16 16:00:00,
2013-01-16 11:02:00,50.9,50.4,29.98,WNW,285,1.1,1.1,98,0.01,CLR,,0.63,WeatherDisplay:10.37,2013-01-16 16:02:00,
2013-01-16 11:04:00,51.0,50.5,29.98,NW,316,1.1,1.1,98,0.01,CLR,,0.63,WeatherDisplay:10.37,2013-01-16 16:04:00,
2013-01-16 11:05:00,51.1,50.6,29.98,NW,316,1.0,0.0,98,0.01,CLR,,0.63,WeatherDisplay:10.37,2013-01-16 16:05:00,
2013-01-16 11:07:00,51.3,50.8,29.98,NW,316,0.0,0.0,98,0.01,CLR,,0.63,WeatherDisplay:10.37,2013-01-16 16:07:00,
2013-01-16 11:09:00,51.4,51.1,29.98,NW,316,1.0,0.0,99,0.01,CLR,,0.63,WeatherDisplay:10.37,2013-01-16 16:09:00,
2013-01-16 11:10:00,51.5,51.2,29.98,NW,316,1.1,0.0,99,0.01,CLR,,0.63,WeatherDisplay:10.37,2013-01-16 16:10:00,
2013-01-16 11:12:00,51.6,51.3,29.98,NW,316,1.1,1.1,99,0.00,CLR,,0.63,WeatherDisplay:10.37,2013-01-16 16:12:00,
2013-01-16 11:14:00,51.5,51.0,29.98,NW,305,1.1,1.1,98,0.00,CLR,,0.63,WeatherDisplay:10.37,2013-01-16 16:14:00,
2013-01-16 11:15:00,51.5,51.0,29.98,NW,305,1.1,1.1,98,0.00,CLR,,0.63,WeatherDisplay:10.37,2013-01-16 16:15:00,
2013-01-16 11:16:00,51.5,51.0,29.98,NW,305,1.1,0.0,98,0.00,CLR,,0.63,WeatherDisplay:10.37,2013-01-16 16:16:00,
2013-01-16 11:17:00,51.6,51.1,29.99,NW,305,1.1,0.0,98,0.00,CLR,,0.63,WeatherDisplay:10.37,2013-01-16 16:17:00,
2013-01-16 11:20:00,51.6,51.1,29.99,NW,305,0.0,1.0,98,0.00,CLR,,0.63,WeatherDisplay:10.37,2013-01-16 16:20:00,
2013-01-16 11:21:00,51.6,51.1,29.98,NW,305,1.1,1.1,98,0.00,CLR,,0.63,WeatherDisplay:10.37,2013-01-16 16:21:00,
2013-01-16 11:22:00,51.7,51.2,29.99,NW,305,1.1,0.0,98,0.00,CLR,,0.63,WeatherDisplay:10.37,2013-01-16 16:22:00,
2013-01-16 11:25:00,51.7,51.2,29.99,NW,305,1.0,0.0,98,0.00,CLR,,0.63,WeatherDisplay:10.37,2013-01-16 16:25:00,
2013-01-16 11:26:00,51.7,51.2,29.99,NW,305,1.1,1.1,98,0.00,CLR,,0.63,WeatherDisplay:10.37,2013-01-16 16:26:00,
2013-01-16 11:28:00,51.8,51.3,29.99,West,269,1.1,1.1,98,0.00,CLR,,0.63,WeatherDisplay:10.37,2013-01-16 16:28:00,
2013-01-16 11:30:00,51.8,51.3,29.98,West,271,0.0,0.0,98,0.00,CLR,,0.63,WeatherDisplay:10.37,2013-01-16 16:30:00,
2013-01-16 11:31:00,51.8,51.3,29.98,West,271,1.0,1.0,98,0.00,CLR,,0.63,WeatherDisplay:10.37,2013-01-16 16:31:00,
2013-01-16 11:33:00,51.8,51.3,29.98,West,274,0.0,0.1,98,0.00,CLR,,0.63,WeatherDisplay:10.37,2013-01-16 16:33:00,
2013-01-16 11:35:00,51.8,51.3,29.98,WNW,302,2.3,2.3,98,0.00,CLR,,0.63,WeatherDisplay:10.37,2013-01-16 16:35:00,
2013-01-16 11:36:00,51.8,51.0,29.98,WNW,302,2.3,2.3,97,0.00,CLR,,0.63,WeatherDisplay:10.37,2013-01-16 16:36:00,
2013-01-16 11:39:00,51.7,50.9,29.98,WNW,302,2.3,2.3,97,0.00,CLR,,0.63,WeatherDisplay:10.37,2013-01-16 16:39:00,
2013-01-16 11:41:00,51.8,51.3,29.98,WNW,302,1.1,1.1,98,0.00,CLR,,0.63,WeatherDisplay:10.37,2013-01-16 16:41:00,
2013-01-16 11:44:00,51.9,51.4,29.98,WNW,297,1.1,1.1,98,0.00,CLR,,0.63,WeatherDisplay:10.37,2013-01-16 16:44:00,
2013-01-16 11:46:00,51.9,51.4,29.97,WNW,298,1.1,1.1,98,0.00,CLR,,0.63,WeatherDisplay:10.37,2013-01-16 16:46:00,
2013-01-16 11:47:00,51.9,51.1,29.97,WNW,298,1.1,1.1,97,0.00,CLR,,0.63,WeatherDisplay:10.37,2013-01-16 16:47:00,
2013-01-16 11:49:00,51.9,51.1,29.97,West,272,1.1,1.1,97,0.00,CLR,,0.63,WeatherDisplay:10.37,2013-01-16 16:49:00,
2013-01-16 11:52:00,51.9,51.1,29.97,West,272,1.1,1.1,97,0.00,CLR,,0.63,WeatherDisplay:10.37,2013-01-16 16:52:00,
2013-01-16 11:54:00,51.9,51.1,29.96,WNW,299,1.1,1.1,97,0.00,CLR,,0.63,WeatherDisplay:10.37,2013-01-16 16:54:00,
2013-01-16 11:57:00,51.9,51.1,29.96,WNW,290,1.1,1.1,97,0.00,CLR,,0.63,WeatherDisplay:10.37,2013-01-16 16:57:00,
2013-01-16 11:58:00,52.0,51.2,29.97,WNW,291,2.3,2.3,97,0.00,CLR,,0.63,WeatherDisplay:10.37,2013-01-16 16:58:00,
2013-01-16 12:00:00,52.0,51.2,29.97,WNW,290,1.1,1.1,97,0.00,CLR,,0.63,WeatherDisplay:10.37,2013-01-16 17:00:00,
2013-01-16 12:02:00,52.1,51.3,29.96,WNW,289,1.1,1.1,97,0.00,CLR,,0.63,WeatherDisplay:10.37,2013-01-16 17:02:00,
2013-01-16 12:03:00,52.1,51.3,29.96,WSW,251,3.0,3.0,97,0.00,,,0.63,WeatherDisplay:10.37,2013-01-16 17:03:00,
2013-01-16 12:05:00,52.1,51.3,29.97,WSW,253,2.3,2.3,97,0.00,,,0.63,WeatherDisplay:10.37,2013-01-16 17:05:00,
2013-01-16 12:08:00,52.2,51.4,29.96,West,264,3.5,3.5,97,0.00,,,0.63,WeatherDisplay:10.37,2013-01-16 17:08:00,
2013-01-16 12:10:00,52.2,51.4,29.96,WNW,289,1.1,1.1,97,0.00,,,0.63,WeatherDisplay:10.37,2013-01-16 17:10:00,
2013-01-16 12:13:00,52.2,51.4,29.96,WNW,289,1.1,1.1,97,0.00,,,0.63,WeatherDisplay:10.37,2013-01-16 17:13:00,
2013-01-16 12:14:00,52.2,51.4,29.96,WNW,289,1.1,0.0,97,0.00,,,0.63,WeatherDisplay:10.37,2013-01-16 17:14:00,
2013-01-16 12:16:00,52.4,51.6,29.95,WNW,289,1.1,1.1,97,0.00,,,0.63,WeatherDisplay:10.37,2013-01-16 17:16:00,
2013-01-16 12:18:00,52.5,51.4,29.95,WNW,290,2.3,2.3,96,0.00,,,0.63,WeatherDisplay:10.37,2013-01-16 17:18:00,
2013-01-16 12:20:00,52.5,51.4,29.94,WNW,289,0.0,2.0,96,0.00,,,0.63,WeatherDisplay:10.37,2013-01-16 17:20:00,
2013-01-16 12:21:00,52.6,51.8,29.94,WNW,289,0.0,0.0,97,0.00,,,0.63,WeatherDisplay:10.37,2013-01-16 17:21:00,
2013-01-16 12:23:00,52.7,51.6,29.94,WSW,257,1.0,1.0,96,0.00,,,0.63,WeatherDisplay:10.37,2013-01-16 17:23:00,
2013-01-16 12:24:00,52.7,51.6,29.94,WSW,255,2.3,2.3,96,0.00,,,0.63,WeatherDisplay:10.37,2013-01-16 17:24:00,
2013-01-16 12:25:00,52.7,51.6,29.94,WSW,256,2.3,2.3,96,0.00,,,0.63,WeatherDisplay:10.37,2013-01-16 17:25:00,
2013-01-16 12:26:00,52.8,51.7,29.94,WSW,256,1.1,1.1,96,0.00,,,0.63,WeatherDisplay:10.37,2013-01-16 17:26:00,
2013-01-16 12:29:00,53.1,52.0,29.94,WSW,255,0.0,0.3,96,0.00,,,0.63,WeatherDisplay:10.37,2013-01-16 17:29:00,
2013-01-16 12:30:00,53.3,52.2,29.94,WSW,256,0.0,0.0,96,0.00,,,0.63,WeatherDisplay:10.37,2013-01-16 17:30:00,
2013-01-16 12:31:00,53.4,52.3,29.94,WSW,256,1.1,0.0,96,0.00,,,0.63,WeatherDisplay:10.37,2013-01-16 17:31:00,
2013-01-16 12:34:00,53.6,52.2,29.94,NW,305,2.3,2.3,95,0.00,,,0.63,WeatherDisplay:10.37,2013-01-16 17:34:00,
2013-01-16 12:35:00,53.6,52.2,29.94,WNW,286,1.0,2.0,95,0.00,,,0.63,WeatherDisplay:10.37,2013-01-16 17:35:00,
2013-01-16 12:36:00,53.6,52.2,29.94,WNW,302,2.3,2.3,95,0.00,,,0.63,WeatherDisplay:10.37,2013-01-16 17:36:00,
2013-01-16 12:39:00,53.7,52.3,29.94,WNW,300,1.1,1.1,95,0.00,,,0.63,WeatherDisplay:10.37,2013-01-16 17:39:00,
2013-01-16 12:40:00,53.8,52.4,29.94,WNW,301,1.1,1.1,95,0.00,,,0.63,WeatherDisplay:10.37,2013-01-16 17:40:00,
2013-01-16 12:42:00,53.8,52.1,29.94,NW,309,2.3,2.3,94,0.00,,,0.63,WeatherDisplay:10.37,2013-01-16 17:42:00,
2013-01-16 12:44:00,53.9,52.5,29.93,NW,307,1.1,1.1,95,0.00,,,0.63,WeatherDisplay:10.37,2013-01-16 17:44:00,
2013-01-16 12:45:00,53.9,52.5,29.94,WNW,300,2.3,2.3,95,0.00,,,0.63,WeatherDisplay:10.37,2013-01-16 17:45:00,
2013-01-16 12:48:00,54.1,52.7,29.94,WNW,293,2.3,2.3,95,0.00,,,0.63,WeatherDisplay:10.37,2013-01-16 17:48:00,
2013-01-16 12:49:00,54.2,52.8,29.94,NW,312,4.0,4.0,95,0.00,,,0.63,WeatherDisplay:10.37,2013-01-16 17:49:00,
2013-01-16 12:50:00,54.3,52.9,29.94,NNW,329,3.5,3.5,95,0.00,,,0.63,WeatherDisplay:10.37,2013-01-16 17:50:00,
2013-01-16 12:51:00,54.3,52.6,29.94,WNW,286,3.5,3.5,94,0.00,,,0.63,WeatherDisplay:10.37,2013-01-16 17:51:00,
2013-01-16 12:53:00,54.3,52.6,29.94,NW,307,4.0,4.0,94,0.00,,,0.63,WeatherDisplay:10.37,2013-01-16 17:53:00,
2013-01-16 12:54:00,54.3,52.3,29.94,WNW,283,4.6,4.6,93,0.00,,,0.63,WeatherDisplay:10.37,2013-01-16 17:54:00,
2013-01-16 12:55:00,54.2,52.2,29.94,NW,319,3.5,3.5,93,0.00,,,0.63,WeatherDisplay:10.37,2013-01-16 17:55:00,
2013-01-16 12:56:00,54.2,52.2,29.94,NW,314,3.5,3.5,93,0.00,,,0.63,WeatherDisplay:10.37,2013-01-16 17:56:00,
2013-01-16 12:58:00,54.1,52.1,29.95,WNW,302,3.5,3.5,93,0.00,,,0.63,WeatherDisplay:10.37,2013-01-16 17:58:00,
2013-01-16 12:59:00,54.1,52.4,29.95,WNW,297,4.0,4.0,94,0.00,,,0.63,WeatherDisplay:10.37,2013-01-16 17:59:00,
2013-01-16 13:01:00,54.1,52.1,29.95,West,276,3.5,3.5,93,0.00,,,0.63,WeatherDisplay:10.37,2013-01-16 18:01:00,
2013-01-16 13:04:00,53.9,51.9,29.95,NW,326,3.5,3.5,93,0.00,,,0.63,WeatherDisplay:10.37,2013-01-16 18:04:00,
2013-01-16 13:05:00,53.9,51.9,29.95,NW,310,3.5,3.5,93,0.00,,,0.63,WeatherDisplay:10.37,2013-01-16 18:05:00,
2013-01-16 13:06:00,53.8,51.5,29.95,NW,316,5.8,5.8,92,0.00,,,0.63,WeatherDisplay:10.37,2013-01-16 18:06:00,
2013-01-16 13:09:00,53.6,51.6,29.95,NW,308,2.3,2.3,93,0.00,,,0.63,WeatherDisplay:10.37,2013-01-16 18:09:00,
2013-01-16 13:10:00,53.6,51.6,29.95,WNW,302,4.0,4.0,93,0.00,,,0.63,WeatherDisplay:10.37,2013-01-16 18:10:00,
2013-01-16 13:11:00,53.6,51.6,29.95,NW,316,4.6,4.6,93,0.00,,,0.63,WeatherDisplay:10.37,2013-01-16 18:11:00,
2013-01-16 13:14:00,53.6,51.9,29.95,WNW,290,4.6,4.6,94,0.00,,,0.63,WeatherDisplay:10.37,2013-01-16 18:14:00,
2013-01-16 13:15:00,53.6,51.9,29.95,WNW,299,3.5,3.5,94,0.00,,,0.63,WeatherDisplay:10.37,2013-01-16 18:15:00,
2013-01-16 13:16:00,53.7,52.3,29.96,WSW,245,3.5,3.5,95,0.00,,,0.63,WeatherDisplay:10.37,2013-01-16 18:16:00,
2013-01-16 13:20:00,53.7,52.0,29.96,NW,306,4.0,4.0,94,0.00,,,0.63,WeatherDisplay:10.37,2013-01-16 18:20:00,
2013-01-16 13:21:00,53.7,52.0,29.96,WNW,290,3.5,3.5,94,0.00,,,0.63,WeatherDisplay:10.37,2013-01-16 18:21:00,
2013-01-16 13:25:00,53.5,51.8,29.96,WNW,288,4.0,4.0,94,0.00,,,0.63,WeatherDisplay:10.37,2013-01-16 18:25:00,
2013-01-16 13:26:00,53.5,51.8,29.96,WNW,286,6.9,6.9,94,0.00,,,0.63,WeatherDisplay:10.37,2013-01-16 18:26:00,
2013-01-16 13:27:00,53.4,51.7,29.96,WNW,295,6.9,6.9,94,0.00,,,0.63,WeatherDisplay:10.37,2013-01-16 18:27:00,
2013-01-16 13:31:00,53.3,51.6,29.97,NW,310,5.8,5.8,94,0.00,,,0.63,WeatherDisplay:10.37,2013-01-16 18:31:00,
2013-01-16 13:32:00,53.3,51.6,29.97,WSW,254,3.5,3.5,94,0.00,,,0.63,WeatherDisplay:10.37,2013-01-16 18:32:00,
2013-01-16 13:36:00,53.2,51.5,29.97,WSW,253,4.6,4.6,94,0.00,,,0.63,WeatherDisplay:10.37,2013-01-16 18:36:00,
2013-01-16 13:37:00,53.2,51.5,29.97,WSW,250,5.8,5.8,94,0.00,,,0.63,WeatherDisplay:10.37,2013-01-16 18:37:00,
2013-01-16 13:41:00,53.1,51.1,29.97,WNW,293,4.6,4.6,93,0.00,,,0.63,WeatherDisplay:10.37,2013-01-16 18:41:00,
2013-01-16 13:42:00,53.1,51.1,29.97,WSW,249,4.6,4.6,93,0.00,,,0.63,WeatherDisplay:10.37,2013-01-16 18:42:00,
2013-01-16 13:43:00,53.1,51.1,29.97,WSW,249,5.0,5.0,93,0.00,,,0.63,WeatherDisplay:10.37,2013-01-16 18:43:00,
2013-01-16 13:46:00,53.1,51.1,29.97,West,261,4.6,4.6,93,0.00,,,0.63,WeatherDisplay:10.37,2013-01-16 18:46:00,
2013-01-16 13:47:00,53.1,51.1,29.97,WNW,293,3.5,3.5,93,0.00,,,0.63,WeatherDisplay:10.37,2013-01-16 18:47:00,
2013-01-16 13:48:00,53.1,51.1,29.97,WSW,258,3.5,3.5,93,0.00,,,0.63,WeatherDisplay:10.37,2013-01-16 18:48:00,
2013-01-16 13:52:00,53.1,51.1,29.98,SW,231,6.9,6.9,93,0.00,,,0.63,WeatherDisplay:10.37,2013-01-16 18:52:00,
2013-01-16 13:53:00,53.2,51.2,29.98,WSW,250,6.9,6.9,93,0.00,,,0.63,WeatherDisplay:10.37,2013-01-16 18:53:00,
2013-01-16 13:57:00,53.2,51.2,29.97,WSW,257,4.6,4.6,93,0.00,,,0.63,WeatherDisplay:10.37,2013-01-16 18:57:00,
2013-01-16 13:58:00,53.2,51.2,29.97,West,261,3.5,3.5,93,0.00,,,0.63,WeatherDisplay:10.37,2013-01-16 18:58:00,
2013-01-16 13:59:00,53.2,51.2,29.97,SW,222,4.0,4.0,93,0.00,,,0.63,WeatherDisplay:10.37,2013-01-16 18:59:00,
2013-01-16 14:02:00,53.2,51.2,29.97,WSW,238,3.5,3.5,93,0.00,,,0.63,WeatherDisplay:10.37,2013-01-16 19:02:00,
2013-01-16 14:03:00,53.2,50.9,29.97,West,261,3.5,3.5,92,0.00,,,0.63,WeatherDisplay:10.37,2013-01-16 19:03:00,
2013-01-16 14:05:00,53.1,50.8,29.97,West,259,3.5,3.5,92,0.00,,,0.63,WeatherDisplay:10.37,2013-01-16 19:05:00,
2013-01-16 14:07:00,53.1,50.8,29.97,WSW,254,3.5,3.5,92,0.00,,,0.63,WeatherDisplay:10.37,2013-01-16 19:07:00,
2013-01-16 14:08:00,53.1,50.8,29.97,WSW,249,4.0,4.0,92,0.00,,,0.63,WeatherDisplay:10.37,2013-01-16 19:08:00,
2013-01-16 14:10:00,53.1,51.1,29.97,WSW,245,7.0,7.0,93,0.00,,,0.63,WeatherDisplay:10.37,2013-01-16 19:10:00,
2013-01-16 14:12:00,53.0,51.0,29.97,West,264,4.0,4.0,93,0.00,,,0.63,WeatherDisplay:10.37,2013-01-16 19:12:00,
2013-01-16 14:13:00,53.0,51.0,29.97,WSW,238,6.0,6.0,93,0.00,,,0.63,WeatherDisplay:10.37,2013-01-16 19:13:00,
2013-01-16 14:15:00,53.0,50.7,29.97,WSW,251,4.6,4.6,92,0.00,,,0.63,WeatherDisplay:10.37,2013-01-16 19:15:00,
2013-01-16 14:18:00,53.0,51.0,29.97,WSW,251,5.0,5.0,93,0.00,,,0.63,WeatherDisplay:10.37,2013-01-16 19:18:00,
2013-01-16 14:19:00,53.0,50.7,29.96,WSW,256,4.6,4.6,92,0.00,,,0.63,WeatherDisplay:10.37,2013-01-16 19:19:00,
2013-01-16 14:20:00,53.0,50.7,29.96,WSW,241,4.6,4.6,92,0.00,,,0.63,WeatherDisplay:10.37,2013-01-16 19:20:00,
2013-01-16 14:23:00,53.0,51.0,29.97,WSW,255,2.3,2.3,93,0.00,,,0.63,WeatherDisplay:10.37,2013-01-16 19:23:00,
2013-01-16 14:24:00,53.0,51.0,29.97,West,262,3.0,3.0,93,0.00,,,0.63,WeatherDisplay:10.37,2013-01-16 19:24:00,
2013-01-16 14:25:00,53.0,51.0,29.97,WSW,253,3.5,3.5,93,0.00,,,0.63,WeatherDisplay:10.37,2013-01-16 19:25:00,
2013-01-16 14:28:00,53.0,50.7,29.97,WNW,297,4.6,4.6,92,0.00,,,0.63,WeatherDisplay:10.37,2013-01-16 19:28:00,
2013-01-16 14:29:00,53.0,50.7,29.97,WNW,285,4.6,4.6,92,0.00,,,0.63,WeatherDisplay:10.37,2013-01-16 19:29:00,
2013-01-16 14:30:00,53.0,51.0,29.97,West,267,3.5,3.5,93,0.00,,,0.63,WeatherDisplay:10.37,2013-01-16 19:30:00,
2013-01-16 14:34:00,53.0,51.0,29.97,WSW,258,3.5,3.5,93,0.00,,,0.63,WeatherDisplay:10.37,2013-01-16 19:34:00,
2013-01-16 14:36:00,53.0,51.0,29.97,WSW,256,3.5,3.5,93,0.00,,,0.63,WeatherDisplay:10.37,2013-01-16 19:36:00,
2013-01-16 14:39:00,52.9,50.9,29.97,West,269,3.5,3.5,93,0.00,,,0.63,WeatherDisplay:10.37,2013-01-16 19:39:00,
2013-01-16 14:41:00,52.9,50.9,29.96,WSW,239,4.6,4.6,93,0.00,,,0.63,WeatherDisplay:10.37,2013-01-16 19:41:00,
2013-01-16 14:44:00,52.8,50.8,29.96,WSW,253,1.1,1.1,93,0.00,,,0.63,WeatherDisplay:10.37,2013-01-16 19:44:00,
2013-01-16 14:45:00,52.9,50.9,29.96,WSW,253,2.3,2.3,93,0.00,,,0.63,WeatherDisplay:10.37,2013-01-16 19:45:00,
2013-01-16 14:47:00,52.9,50.9,29.96,WSW,255,2.3,2.3,93,0.00,,,0.63,WeatherDisplay:10.37,2013-01-16 19:47:00,
2013-01-16 14:49:00,52.8,50.8,29.97,West,260,3.5,3.5,93,0.00,,,0.63,WeatherDisplay:10.37,2013-01-16 19:49:00,
2013-01-16 14:50:00,52.8,50.8,29.97,WSW,257,1.0,3.0,93,0.00,,,0.63,WeatherDisplay:10.37,2013-01-16 19:50:00,
2013-01-16 14:52:00,52.8,51.1,29.97,WSW,256,2.3,2.3,94,0.00,,,0.63,WeatherDisplay:10.37,2013-01-16 19:52:00,
2013-01-16 14:55:00,52.8,50.8,29.97,WSW,252,2.0,8.0,93,0.00,,,0.63,WeatherDisplay:10.37,2013-01-16 19:55:00,
2013-01-16 14:57:00,52.8,50.8,29.97,NW,305,4.6,4.6,93,0.00,,,0.63,WeatherDisplay:10.37,2013-01-16 19:57:00,
2013-01-16 15:00:00,52.8,50.8,29.96,WSW,237,5.0,5.0,93,0.00,,,0.63,WeatherDisplay:10.37,2013-01-16 20:00:00,
2013-01-16 15:02:00,52.8,50.8,29.96,WNW,286,5.8,5.8,93,0.00,,,0.63,WeatherDisplay:10.37,2013-01-16 20:02:00,
2013-01-16 15:05:00,52.9,50.9,29.96,West,260,4.6,4.6,93,0.00,,,0.63,WeatherDisplay:10.37,2013-01-16 20:05:00,
2013-01-16 15:06:00,52.9,50.9,29.96,West,274,5.0,5.0,93,0.00,,,0.63,WeatherDisplay:10.37,2013-01-16 20:06:00,
2013-01-16 15:08:00,52.9,50.9,29.96,West,269,4.6,4.6,93,0.00,,,0.63,WeatherDisplay:10.37,2013-01-16 20:08:00,
2013-01-16 15:10:00,52.9,50.9,29.96,West,265,3.5,3.5,93,0.00,,,0.63,WeatherDisplay:10.37,2013-01-16 20:10:00,
2013-01-16 15:11:00,53.0,51.0,29.96,West,274,2.3,2.3,93,0.00,,,0.63,WeatherDisplay:10.37,2013-01-16 20:11:00,
2013-01-16 15:13:00,53.0,51.3,29.96,WSW,250,2.3,2.3,94,0.00,,,0.63,WeatherDisplay:10.37,2013-01-16 20:13:00,
2013-01-16 15:15:00,53.0,51.0,29.96,WSW,257,3.5,3.5,93,0.00,,,0.63,WeatherDisplay:10.37,2013-01-16 20:15:00,
2013-01-16 15:16:00,52.9,50.9,29.96,WSW,257,3.5,3.5,93,0.00,,,0.63,WeatherDisplay:10.37,2013-01-16 20:16:00,
2013-01-16 15:17:00,52.9,50.9,29.96,NW,326,3.5,3.5,93,0.00,,,0.63,WeatherDisplay:10.37,2013-01-16 20:17:00,
2013-01-16 15:18:00,52.9,51.2,29.95,West,262,5.8,5.8,94,0.00,,,0.63,WeatherDisplay:10.37,2013-01-16 20:18:00,
2013-01-16 15:21:00,52.9,51.2,29.96,West,279,3.5,3.5,94,0.00,,,0.63,WeatherDisplay:10.37,2013-01-16 20:21:00,
2013-01-16 15:22:00,52.9,51.2,29.96,WSW,249,3.5,3.5,94,0.00,,,0.63,WeatherDisplay:10.37,2013-01-16 20:22:00,
2013-01-16 15:23:00,52.9,51.2,29.96,West,266,4.6,4.6,94,0.00,,,0.63,WeatherDisplay:10.37,2013-01-16 20:23:00,
2013-01-16 15:26:00,52.8,51.1,29.96,WSW,246,4.6,4.6,94,0.00,,,0.63,WeatherDisplay:10.37,2013-01-16 20:26:00,
2013-01-16 15:27:00,52.8,51.1,29.96,WSW,243,6.0,6.0,94,0.00,,,0.63,WeatherDisplay:10.37,2013-01-16 20:27:00,
2013-01-16 15:29:00,52.6,50.9,29.96,WSW,257,4.6,4.6,94,0.00,,,0.63,WeatherDisplay:10.37,2013-01-16 20:29:00,
2013-01-16 15:31:00,52.6,50.9,29.96,WSW,254,3.0,3.0,94,0.00,,,0.63,WeatherDisplay:10.37,2013-01-16 20:31:00,
2013-01-16 15:32:00,52.6,50.9,29.96,WSW,251,2.3,2.3,94,0.00,,,0.63,WeatherDisplay:10.37,2013-01-16 20:32:00,
2013-01-16 15:34:00,52.5,50.8,29.96,SW,233,5.0,5.0,94,0.00,,,0.63,WeatherDisplay:10.37,2013-01-16 20:34:00,
2013-01-16 15:36:00,52.3,50.3,29.96,SW,235,9.2,9.2,93,0.00,,,0.63,WeatherDisplay:10.37,2013-01-16 20:36:00,
2013-01-16 15:37:00,52.3,50.3,29.96,West,264,4.6,4.6,93,0.00,,,0.63,WeatherDisplay:10.37,2013-01-16 20:37:00,
2013-01-16 15:39:00,52.2,50.5,29.96,West,271,3.5,3.5,94,0.00,,,0.63,WeatherDisplay:10.37,2013-01-16 20:39:00,
2013-01-16 15:41:00,52.1,50.4,29.96,West,276,3.5,3.5,94,0.00,,,0.63,WeatherDisplay:10.37,2013-01-16 20:41:00,
2013-01-16 15:42:00,52.1,50.4,29.97,SW,227,4.6,4.6,94,0.00,,,0.63,WeatherDisplay:10.37,2013-01-16 20:42:00,
2013-01-16 15:44:00,52.1,50.4,29.97,WNW,295,3.5,3.5,94,0.00,,,0.63,WeatherDisplay:10.37,2013-01-16 20:44:00,
2013-01-16 15:46:00,52.0,50.0,29.97,SW,229,5.8,5.8,93,0.00,,,0.63,WeatherDisplay:10.37,2013-01-16 20:46:00,
2013-01-16 15:47:00,52.0,50.3,29.97,West,260,6.9,6.9,94,0.00,,,0.63,WeatherDisplay:10.37,2013-01-16 20:47:00,
2013-01-16 15:50:00,51.9,50.2,29.97,WNW,303,1.1,1.1,94,0.00,,,0.63,WeatherDisplay:10.37,2013-01-16 20:50:00,
2013-01-16 15:52:00,51.8,50.1,29.97,WSW,251,4.0,4.0,94,0.00,,,0.63,WeatherDisplay:10.37,2013-01-16 20:52:00,
2013-01-16 15:56:00,51.7,50.0,29.97,WSW,249,3.0,3.0,94,0.00,,,0.63,WeatherDisplay:10.37,2013-01-16 20:56:00,
2013-01-16 15:57:00,51.8,50.1,29.97,West,262,3.5,3.5,94,0.00,,,0.63,WeatherDisplay:10.37,2013-01-16 20:57:00,
2013-01-16 15:58:00,51.7,50.0,29.97,WSW,253,4.6,4.6,94,0.00,,,0.63,WeatherDisplay:10.37,2013-01-16 20:58:00,
2013-01-16 16:01:00,51.7,50.0,29.97,WSW,241,3.0,3.0,94,0.00,,,0.63,WeatherDisplay:10.37,2013-01-16 21:01:00,
2013-01-16 16:02:00,51.7,50.0,29.97,WSW,241,5.8,5.8,94,0.00,,,0.63,WeatherDisplay:10.37,2013-01-16 21:02:00,
2013-01-16 16:03:00,51.6,49.9,29.97,WSW,253,2.3,2.3,94,0.00,,,0.63,WeatherDisplay:10.37,2013-01-16 21:03:00,
2013-01-16 16:04:00,51.6,49.9,29.97,SSW,212,2.3,2.3,94,0.00,,,0.63,WeatherDisplay:10.37,2013-01-16 21:04:00,
2013-01-16 16:07:00,51.6,49.9,29.97,WSW,251,3.5,3.5,94,0.00,,,0.63,WeatherDisplay:10.37,2013-01-16 21:07:00,
2013-01-16 16:08:00,51.6,49.9,29.97,West,259,1.1,1.2,94,0.00,,,0.63,WeatherDisplay:10.37,2013-01-16 21:08:00,
2013-01-16 16:09:00,51.6,49.9,29.97,West,259,3.5,3.5,94,0.00,,,0.63,WeatherDisplay:10.37,2013-01-16 21:09:00,
2013-01-16 16:12:00,51.6,50.2,29.97,West,271,2.3,2.3,95,0.00,,,0.63,WeatherDisplay:10.37,2013-01-16 21:12:00,
2013-01-16 16:13:00,51.6,50.2,29.98,WSW,257,2.3,2.3,95,0.00,,,0.63,WeatherDisplay:10.37,2013-01-16 21:13:00,
2013-01-16 16:14:00,51.6,50.2,29.98,WSW,257,2.3,2.3,95,0.00,,,0.63,WeatherDisplay:10.37,2013-01-16 21:14:00,
2013-01-16 16:17:00,51.5,50.1,29.97,WSW,239,4.6,4.6,95,0.00,,,0.63,WeatherDisplay:10.37,2013-01-16 21:17:00,
2013-01-16 16:18:00,51.5,50.1,29.97,West,267,4.6,4.6,95,0.00,,,0.63,WeatherDisplay:10.37,2013-01-16 21:18:00,
2013-01-16 16:19:00,51.5,50.1,29.98,WSW,258,2.3,2.3,95,0.00,,,0.63,WeatherDisplay:10.37,2013-01-16 21:19:00,
2013-01-16 16:22:00,51.4,50.0,29.98,WSW,252,3.5,3.5,95,0.00,,,0.63,WeatherDisplay:10.37,2013-01-16 21:22:00,
2013-01-16 16:23:00,51.4,50.0,29.98,WNW,283,3.5,3.5,95,0.00,,,0.63,WeatherDisplay:10.37,2013-01-16 21:23:00,
2013-01-16 16:24:00,51.4,50.0,29.98,WSW,255,3.5,3.5,95,0.00,,,0.63,WeatherDisplay:10.37,2013-01-16 21:24:00,
2013-01-16 16:25:00,51.4,50.0,29.98,WSW,255,4.6,4.6,95,0.00,,,0.63,WeatherDisplay:10.37,2013-01-16 21:25:00,
2013-01-16 16:27:00,51.3,49.9,29.99,WNW,290,8.0,8.0,95,0.00,,,0.63,WeatherDisplay:10.37,2013-01-16 21:27:00,
2013-01-16 16:28:00,51.3,49.9,29.98,WNW,300,8.1,8.1,95,0.00,,,0.63,WeatherDisplay:10.37,2013-01-16 21:28:00,
2013-01-16 16:29:00,51.3,49.9,29.99,West,281,5.8,5.8,95,0.00,,,0.63,WeatherDisplay:10.37,2013-01-16 21:29:00,
2013-01-16 16:30:00,51.2,49.8,29.98,WSW,245,5.0,5.0,95,0.00,,,0.63,WeatherDisplay:10.37,2013-01-16 21:30:00,
2013-01-16 16:33:00,51.2,49.8,29.99,West,261,4.6,4.6,95,0.00,,,0.63,WeatherDisplay:10.37,2013-01-16 21:33:00,
2013-01-16 16:35:00,51.1,49.7,29.99,WSW,245,5.8,5.8,95,0.00,,,0.63,WeatherDisplay:10.37,2013-01-16 21:35:00,
2013-01-16 16:38:00,51.0,49.6,29.99,WSW,257,7.0,7.0,95,0.00,,,0.63,WeatherDisplay:10.37,2013-01-16 21:38:00,
2013-01-16 16:40:00,50.9,49.5,29.99,WNW,302,5.0,5.0,95,0.00,,,0.63,WeatherDisplay:10.37,2013-01-16 21:40:00,
2013-01-16 16:43:00,50.9,49.5,29.99,WSW,251,6.9,6.9,95,0.00,,,0.63,WeatherDisplay:10.37,2013-01-16 21:43:00,
2013-01-16 16:45:00,50.9,49.5,29.99,WNW,290,4.0,4.0,95,0.00,,,0.63,WeatherDisplay:10.37,2013-01-16 21:45:00,
2013-01-16 16:48:00,50.9,49.8,29.99,WNW,295,3.0,3.0,96,0.00,,,0.63,WeatherDisplay:10.37,2013-01-16 21:48:00,
2013-01-16 16:50:00,50.8,49.7,29.99,WSW,253,4.6,4.6,96,0.00,,,0.63,WeatherDisplay:10.37,2013-01-16 21:50:00,
2013-01-16 16:51:00,50.9,49.8,29.99,WSW,244,4.6,4.6,96,0.00,,,0.63,WeatherDisplay:10.37,2013-01-16 21:51:00,
2013-01-16 16:53:00,50.8,49.7,29.99,West,262,3.5,3.5,96,0.00,,,0.63,WeatherDisplay:10.37,2013-01-16 21:53:00,
2013-01-16 16:56:00,50.8,49.4,29.99,WSW,244,4.6,4.6,95,0.00,,,0.63,WeatherDisplay:10.37,2013-01-16 21:56:00,
2013-01-16 16:58:00,50.8,49.4,29.99,WSW,253,3.5,3.5,95,0.00,,,0.63,WeatherDisplay:10.37,2013-01-16 21:58:00,
2013-01-16 16:59:00,50.8,49.4,29.99,WNW,286,3.5,3.5,95,0.00,,,0.63,WeatherDisplay:10.37,2013-01-16 21:59:00,
2013-01-16 17:01:00,50.8,49.4,29.99,West,264,3.5,3.5,95,0.00,,,0.63,WeatherDisplay:10.37,2013-01-16 22:01:00,
2013-01-16 17:02:00,50.8,49.4,29.99,WSW,244,2.3,2.3,95,0.00,,,0.63,WeatherDisplay:10.37,2013-01-16 22:02:00,
2013-01-16 17:04:00,50.8,49.4,29.99,West,262,3.5,3.5,95,0.00,,,0.63,WeatherDisplay:10.37,2013-01-16 22:04:00,
2013-01-16 17:07:00,50.8,49.4,29.98,WSW,249,3.5,3.5,95,0.00,,,0.63,WeatherDisplay:10.37,2013-01-16 22:07:00,
2013-01-16 17:08:00,50.8,49.4,29.99,West,267,2.3,2.3,95,0.00,,,0.63,WeatherDisplay:10.37,2013-01-16 22:08:00,
2013-01-16 17:09:00,50.8,49.4,29.99,West,261,2.3,2.3,95,0.00,,,0.63,WeatherDisplay:10.37,2013-01-16 22:09:00,
2013-01-16 17:12:00,50.7,49.3,29.99,WNW,295,3.5,3.5,95,0.00,,,0.63,WeatherDisplay:10.37,2013-01-16 22:12:00,
2013-01-16 17:13:00,50.7,49.6,29.99,WNW,289,6.0,6.0,96,0.00,,,0.63,WeatherDisplay:10.37,2013-01-16 22:13:00,
2013-01-16 17:14:00,50.7,49.3,29.99,WSW,246,6.9,6.9,95,0.00,,,0.63,WeatherDisplay:10.37,2013-01-16 22:14:00,
2013-01-16 17:15:00,50.7,49.3,29.99,West,271,3.0,7.0,95,0.00,,,0.63,WeatherDisplay:10.37,2013-01-16 22:15:00,
2013-01-16 17:17:00,50.6,49.5,29.99,WNW,287,4.6,4.6,96,0.00,,,0.63,WeatherDisplay:10.37,2013-01-16 22:17:00,
2013-01-16 17:19:00,50.6,49.5,29.99,WNW,298,4.0,4.0,96,0.00,,,0.63,WeatherDisplay:10.37,2013-01-16 22:19:00,
2013-01-16 17:21:00,50.6,49.5,30.00,WNW,285,2.3,2.3,96,0.00,,,0.63,WeatherDisplay:10.37,2013-01-16 22:21:00,
2013-01-16 17:22:00,50.6,49.5,29.99,West,269,1.1,1.1,96,0.00,,,0.63,WeatherDisplay:10.37,2013-01-16 22:22:00,
2013-01-16 17:24:00,50.6,49.5,30.00,WSW,257,2.3,2.3,96,0.00,,,0.63,WeatherDisplay:10.37,2013-01-16 22:24:00,
2013-01-16 17:26:00,50.6,49.5,30.00,WSW,239,3.5,3.5,96,0.00,,,0.63,WeatherDisplay:10.37,2013-01-16 22:26:00,
2013-01-16 17:28:00,50.5,49.4,30.00,West,274,2.3,2.3,96,0.00,,,0.63,WeatherDisplay:10.37,2013-01-16 22:28:00,
2013-01-16 17:29:00,50.5,49.4,30.00,WSW,241,2.3,2.3,96,0.00,,,0.63,WeatherDisplay:10.37,2013-01-16 22:29:00,
2013-01-16 17:31:00,50.5,49.4,30.00,WSW,248,3.5,3.5,96,0.00,,,0.63,WeatherDisplay:10.37,2013-01-16 22:31:00,
2013-01-16 17:33:00,50.4,49.3,30.00,SW,235,2.3,2.3,96,0.00,,,0.63,WeatherDisplay:10.37,2013-01-16 22:33:00,
2013-01-16 17:34:00,50.4,49.3,30.00,WSW,249,2.3,2.3,96,0.00,,,0.63,WeatherDisplay:10.37,2013-01-16 22:34:00,
2013-01-16 17:35:00,50.5,49.4,30.00,WSW,255,2.3,2.3,96,0.00,,,0.63,WeatherDisplay:10.37,2013-01-16 22:35:00,
2013-01-16 17:36:00,50.4,49.3,30.00,West,277,2.3,2.3,96,0.00,,,0.63,WeatherDisplay:10.37,2013-01-16 22:36:00,
2013-01-16 17:38:00,50.4,49.3,30.00,West,260,2.3,2.3,96,0.00,,,0.63,WeatherDisplay:10.37,2013-01-16 22:38:00,
2013-01-16 17:39:00,50.4,49.3,30.00,WSW,256,3.5,3.5,96,0.00,,,0.63,WeatherDisplay:10.37,2013-01-16 22:39:00,
2013-01-16 17:40:00,50.4,49.3,30.00,WSW,244,3.5,3.5,96,0.00,,,0.63,WeatherDisplay:10.37,2013-01-16 22:40:00,
2013-01-16 17:41:00,50.4,49.3,30.00,WSW,257,3.5,3.5,96,0.00,,,0.63,WeatherDisplay:10.37,2013-01-16 22:41:00,
2013-01-16 17:43:00,50.4,49.3,30.00,WSW,249,2.3,2.3,96,0.00,,,0.63,WeatherDisplay:10.37,2013-01-16 22:43:00,
2013-01-16 17:44:00,50.4,49.3,30.00,WSW,254,3.5,3.5,96,0.00,,,0.63,WeatherDisplay:10.37,2013-01-16 22:44:00,
2013-01-16 17:45:00,50.4,49.3,30.00,SW,229,3.5,3.5,96,0.00,,,0.63,WeatherDisplay:10.37,2013-01-16 22:45:00,
2013-01-16 17:46:00,50.4,49.3,30.00,WSW,241,3.0,3.0,96,0.00,,,0.63,WeatherDisplay:10.37,2013-01-16 22:46:00,
2013-01-16 17:48:00,50.4,49.3,30.00,West,261,2.3,2.3,96,0.00,,,0.63,WeatherDisplay:10.37,2013-01-16 22:48:00,
2013-01-16 17:49:00,50.4,49.3,30.00,West,261,1.1,1.1,96,0.00,,,0.63,WeatherDisplay:10.37,2013-01-16 22:49:00,
2013-01-16 17:50:00,50.4,49.3,30.00,West,264,2.3,2.3,96,0.00,,,0.63,WeatherDisplay:10.37,2013-01-16 22:50:00,
2013-01-16 17:51:00,50.4,49.3,30.00,WSW,255,1.1,1.7,96,0.00,,,0.63,WeatherDisplay:10.37,2013-01-16 22:51:00,
2013-01-16 17:54:00,50.4,49.3,30.00,West,264,3.5,3.5,96,0.00,,,0.63,WeatherDisplay:10.37,2013-01-16 22:54:00,
2013-01-16 17:55:00,50.3,49.2,30.00,WSW,257,3.5,3.5,96,0.00,,,0.63,WeatherDisplay:10.37,2013-01-16 22:55:00,
2013-01-16 17:57:00,50.3,49.2,30.00,West,259,3.5,3.5,96,0.00,,,0.63,WeatherDisplay:10.37,2013-01-16 22:57:00,
2013-01-16 17:59:00,50.3,49.2,30.00,West,260,2.3,2.3,96,0.00,,,0.63,WeatherDisplay:10.37,2013-01-16 22:59:00,
2013-01-16 18:00:00,50.3,49.2,30.00,WSW,251,2.3,2.3,96,0.00,,,0.63,WeatherDisplay:10.37,2013-01-16 23:00:00,
2013-01-16 18:02:00,50.3,49.2,30.00,West,262,1.1,1.1,96,0.00,,,0.63,WeatherDisplay:10.37,2013-01-16 23:02:00,
2013-01-16 18:04:00,50.3,49.2,30.00,West,279,1.1,1.1,96,0.00,,,0.63,WeatherDisplay:10.37,2013-01-16 23:04:00,
2013-01-16 18:05:00,50.3,49.2,30.00,West,263,1.0,2.0,96,0.00,,,0.63,WeatherDisplay:10.37,2013-01-16 23:05:00,
2013-01-16 18:07:00,50.3,49.2,30.00,WNW,283,3.5,3.5,96,0.00,,,0.63,WeatherDisplay:10.37,2013-01-16 23:07:00,
2013-01-16 18:09:00,50.3,49.2,30.00,WNW,297,4.6,4.6,96,0.00,,,0.63,WeatherDisplay:10.37,2013-01-16 23:09:00,
2013-01-16 18:10:00,50.3,49.2,30.00,WNW,288,1.0,5.0,96,0.00,,,0.63,WeatherDisplay:10.37,2013-01-16 23:10:00,
2013-01-16 18:11:00,50.2,49.1,30.00,West,266,3.5,3.5,96,0.00,,,0.63,WeatherDisplay:10.37,2013-01-16 23:11:00,
2013-01-16 18:12:00,50.2,48.8,30.00,WNW,285,3.5,3.5,95,0.00,,,0.63,WeatherDisplay:10.37,2013-01-16 23:12:00,
2013-01-16 18:14:00,50.1,48.7,30.00,West,266,4.0,4.0,95,0.00,,,0.63,WeatherDisplay:10.37,2013-01-16 23:14:00,
2013-01-16 18:15:00,50.1,48.7,30.00,West,280,2.0,6.0,95,0.00,,,0.63,WeatherDisplay:10.37,2013-01-16 23:15:00,
2013-01-16 18:16:00,50.1,48.7,30.00,WNW,297,3.5,3.5,95,0.00,,,0.63,WeatherDisplay:10.37,2013-01-16 23:16:00,
2013-01-16 18:17:00,50.0,48.6,30.00,West,275,2.3,2.3,95,0.00,,,0.63,WeatherDisplay:10.37,2013-01-16 23:17:00,
2013-01-16 18:20:00,50.0,48.6,30.00,West,272,2.0,6.0,95,0.00,,,0.63,WeatherDisplay:10.37,2013-01-16 23:20:00,
2013-01-16 18:21:00,49.9,48.5,30.00,WNW,302,3.5,3.5,95,0.00,,,0.63,WeatherDisplay:10.37,2013-01-16 23:21:00,
2013-01-16 18:23:00,49.9,48.5,30.00,WNW,287,2.3,2.3,95,0.00,,,0.63,WeatherDisplay:10.37,2013-01-16 23:23:00,
2013-01-16 18:25:00,49.9,48.5,30.00,WSW,249,4.6,4.6,95,0.00,,,0.63,WeatherDisplay:10.37,2013-01-16 23:25:00,
2013-01-16 18:26:00,49.8,48.4,30.01,WNW,299,3.5,3.5,95,0.00,,,0.63,WeatherDisplay:10.37,2013-01-16 23:26:00,
2013-01-16 18:28:00,49.7,48.3,30.01,WSW,247,6.0,6.0,95,0.00,,,0.63,WeatherDisplay:10.37,2013-01-16 23:28:00,
2013-01-16 18:30:00,49.4,47.5,30.01,NW,322,6.9,6.9,93,0.00,,,0.63,WeatherDisplay:10.37,2013-01-16 23:30:00,
2013-01-16 18:31:00,49.1,47.2,30.01,WNW,302,8.1,8.1,93,0.00,,,0.63,WeatherDisplay:10.37,2013-01-16 23:31:00,
2013-01-16 18:34:00,48.7,46.8,30.01,WNW,303,5.8,5.8,93,0.00,,,0.63,WeatherDisplay:10.37,2013-01-16 23:34:00,
2013-01-16 18:35:00,48.6,47.0,30.01,WSW,253,4.6,4.6,94,0.00,,,0.63,WeatherDisplay:10.37,2013-01-16 23:35:00,
2013-01-16 18:36:00,48.3,46.7,30.02,NW,309,5.8,5.8,94,0.00,,,0.63,WeatherDisplay:10.37,2013-01-16 23:36:00,
2013-01-16 18:39:00,48.0,46.4,30.02,WNW,291,6.9,6.9,94,0.00,,,0.63,WeatherDisplay:10.37,2013-01-16 23:39:00,
2013-01-16 18:40:00,47.9,46.3,30.02,WNW,286,6.9,6.9,94,0.00,,,0.63,WeatherDisplay:10.37,2013-01-16 23:40:00,
2013-01-16 18:42:00,47.7,45.8,30.02,WNW,299,6.9,6.9,93,0.00,,,0.63,WeatherDisplay:10.37,2013-01-16 23:42:00,
2013-01-16 18:44:00,47.5,45.6,30.02,West,279,4.6,4.6,93,0.00,,,0.63,WeatherDisplay:10.37,2013-01-16 23:44:00,
2013-01-16 18:45:00,47.4,45.8,30.02,WNW,297,4.6,4.6,94,0.00,,,0.63,WeatherDisplay:10.37,2013-01-16 23:45:00,
2013-01-16 18:47:00,47.3,45.7,30.02,SW,226,3.5,3.5,94,0.00,,,0.63,WeatherDisplay:10.37,2013-01-16 23:47:00,
2013-01-16 18:49:00,47.2,45.6,30.02,West,260,5.8,5.8,94,0.00,,,0.63,WeatherDisplay:10.37,2013-01-16 23:49:00,
2013-01-16 18:50:00,47.1,45.5,30.02,West,271,3.5,3.5,94,0.00,,,0.63,WeatherDisplay:10.37,2013-01-16 23:50:00,
2013-01-16 18:51:00,47.1,45.5,30.02,West,271,3.5,3.5,94,0.00,,,0.63,WeatherDisplay:10.37,2013-01-16 23:51:00,
2013-01-16 18:53:00,47.0,45.4,30.03,WSW,244,3.5,3.5,94,0.00,,,0.63,WeatherDisplay:10.37,2013-01-16 23:53:00,
2013-01-16 18:54:00,46.9,45.3,30.03,WSW,243,4.6,4.6,94,0.00,,,0.63,WeatherDisplay:10.37,2013-01-16 23:54:00,
2013-01-16 18:56:00,46.9,45.3,30.03,WNW,295,3.5,3.5,94,0.00,,,0.63,WeatherDisplay:10.37,2013-01-16 23:56:00,
2013-01-16 18:58:00,46.8,45.2,30.03,WSW,243,4.0,4.0,94,0.00,,,0.63,WeatherDisplay:10.37,2013-01-16 23:58:00,
2013-01-16 18:59:00,46.7,45.1,30.03,WSW,257,3.5,3.5,94,0.00,,,0.63,WeatherDisplay:10.37,2013-01-16 23:59:00,
2013-01-16 19:01:00,46.6,45.0,30.03,WSW,253,3.5,3.5,94,0.00,,,0.63,WeatherDisplay:10.37,2013-01-17 00:01:00,
2013-01-16 19:03:00,46.5,44.9,30.03,WSW,249,5.8,5.8,94,0.00,CLR,,0.63,WeatherDisplay:10.37,2013-01-17 00:03:00,
2013-01-16 19:04:00,46.3,44.7,30.03,WSW,249,3.5,3.5,94,0.00,CLR,,0.63,WeatherDisplay:10.37,2013-01-17 00:04:00,
2013-01-16 19:06:00,46.2,44.6,30.04,WNW,299,5.8,5.8,94,0.00,CLR,,0.63,WeatherDisplay:10.37,2013-01-17 00:06:00,
2013-01-16 19:08:00,46.1,44.5,30.04,West,261,3.5,3.5,94,0.00,CLR,,0.64,WeatherDisplay:10.37,2013-01-17 00:08:00,
2013-01-16 19:10:00,46.1,44.5,30.04,West,275,3.5,3.5,94,0.01,RA,,0.64,WeatherDisplay:10.37,2013-01-17 00:10:00,
2013-01-16 19:11:00,46.0,44.4,30.04,West,260,4.6,4.6,94,0.01,RA,,0.64,WeatherDisplay:10.37,2013-01-17 00:11:00,
2013-01-16 19:13:00,45.8,44.2,30.04,West,267,4.6,4.6,94,0.01,RA,,0.64,WeatherDisplay:10.37,2013-01-17 00:13:00,
2013-01-16 19:15:00,45.7,44.1,30.04,West,267,3.5,3.5,94,0.01,RA,,0.64,WeatherDisplay:10.37,2013-01-17 00:15:00,
2013-01-16 19:17:00,45.6,44.0,30.04,West,259,2.3,2.3,94,0.01,RA,,0.64,WeatherDisplay:10.37,2013-01-17 00:17:00,
2013-01-16 19:19:00,45.5,43.9,30.03,West,271,2.3,2.3,94,0.01,RA,,0.64,WeatherDisplay:10.37,2013-01-17 00:19:00,
2013-01-16 19:20:00,45.4,43.8,30.04,West,271,1.1,1.1,94,0.01,CLR,,0.64,WeatherDisplay:10.37,2013-01-17 00:20:00,
2013-01-16 19:22:00,45.3,43.7,30.04,WSW,258,3.5,3.5,94,0.01,CLR,,0.64,WeatherDisplay:10.37,2013-01-17 00:22:00,
2013-01-16 19:23:00,45.2,43.6,30.04,WSW,250,4.0,4.0,94,0.01,CLR,,0.64,WeatherDisplay:10.37,2013-01-17 00:23:00,
2013-01-16 19:24:00,45.1,43.5,30.04,West,267,3.5,3.5,94,0.01,CLR,,0.64,WeatherDisplay:10.37,2013-01-17 00:24:00,
2013-01-16 19:25:00,45.0,43.4,30.04,WSW,255,3.5,3.5,94,0.01,CLR,,0.64,WeatherDisplay:10.37,2013-01-17 00:25:00,
2013-01-16 19:27:00,44.9,43.3,30.04,WSW,252,2.3,2.3,94,0.01,CLR,,0.64,WeatherDisplay:10.37,2013-01-17 00:27:00,
2013-01-16 19:28:00,44.8,43.2,30.04,WSW,250,2.3,2.3,94,0.01,CLR,,0.64,WeatherDisplay:10.37,2013-01-17 00:28:00,
2013-01-16 19:29:00,44.8,43.2,30.04,WSW,250,2.3,2.3,94,0.01,CLR,,0.64,WeatherDisplay:10.37,2013-01-17 00:29:00,
2013-01-16 19:30:00,44.7,43.1,30.03,West,273,2.3,2.3,94,0.01,CLR,,0.64,WeatherDisplay:10.37,2013-01-17 00:30:00,
2013-01-16 19:32:00,44.5,42.9,30.03,West,269,1.1,1.1,94,0.01,CLR,,0.64,WeatherDisplay:10.37,2013-01-17 00:32:00,
2013-01-16 19:33:00,44.5,42.9,30.04,West,262,2.3,2.3,94,0.01,CLR,,0.64,WeatherDisplay:10.37,2013-01-17 00:33:00,
2013-01-16 19:34:00,44.5,42.9,30.04,West,259,2.3,2.3,94,0.01,CLR,,0.64,WeatherDisplay:10.37,2013-01-17 00:34:00,
2013-01-16 19:36:00,44.3,42.7,30.04,WSW,257,2.3,2.3,94,0.01,CLR,,0.64,WeatherDisplay:10.37,2013-01-17 00:36:00,
2013-01-16 19:38:00,44.2,42.6,30.04,WSW,241,3.5,3.5,94,0.01,CLR,,0.64,WeatherDisplay:10.37,2013-01-17 00:38:00,
2013-01-16 19:39:00,44.1,42.5,30.03,West,267,3.5,3.5,94,0.01,CLR,,0.64,WeatherDisplay:10.37,2013-01-17 00:39:00,
2013-01-16 19:41:00,44.0,42.4,30.03,WSW,237,4.0,4.0,94,0.02,RA,,0.65,WeatherDisplay:10.37,2013-01-17 00:41:00,
2013-01-16 19:43:00,43.9,42.3,30.03,West,262,3.5,3.5,94,0.02,RA,,0.65,WeatherDisplay:10.37,2013-01-17 00:43:00,
2013-01-16 19:44:00,43.8,42.2,30.03,WSW,258,2.3,2.3,94,0.02,RA,,0.65,WeatherDisplay:10.37,2013-01-17 00:44:00,
2013-01-16 19:46:00,43.7,42.1,30.03,West,259,2.3,2.3,94,0.02,RA,,0.65,WeatherDisplay:10.37,2013-01-17 00:46:00,
2013-01-16 19:48:00,43.7,42.1,30.03,WSW,254,2.3,2.3,94,0.02,RA,,0.65,WeatherDisplay:10.37,2013-01-17 00:48:00,
2013-01-16 19:49:00,43.6,42.0,30.02,West,269,1.1,1.1,94,0.02,RA,,0.65,WeatherDisplay:10.37,2013-01-17 00:49:00,
2013-01-16 19:52:00,43.5,41.9,30.02,West,279,0.0,0.0,94,0.02,CLR,,0.65,WeatherDisplay:10.37,2013-01-17 00:52:00,
2013-01-16 19:53:00,43.5,42.2,30.02,West,280,0.0,0.0,95,0.02,CLR,,0.65,WeatherDisplay:10.37,2013-01-17 00:53:00,
2013-01-16 19:54:00,43.5,42.2,30.02,West,280,1.1,0.0,95,0.02,CLR,,0.65,WeatherDisplay:10.37,2013-01-17 00:54:00,
2013-01-16 19:57:00,43.5,42.2,30.02,West,279,0.0,0.0,95,0.02,CLR,,0.65,WeatherDisplay:10.37,2013-01-17 00:57:00,
2013-01-16 19:59:00,43.5,42.2,30.02,West,279,1.1,1.1,95,0.02,CLR,,0.65,WeatherDisplay:10.37,2013-01-17 00:59:00,
2013-01-16 20:00:00,43.5,42.2,30.02,West,280,0.0,1.0,95,0.00,CLR,,0.65,WeatherDisplay:10.37,2013-01-17 01:00:00,
2013-01-16 20:02:00,43.5,42.2,30.02,WNW,290,2.3,2.3,95,0.02,CLR,,0.65,WeatherDisplay:10.37,2013-01-17 01:02:00,
2013-01-16 20:04:00,43.4,42.1,30.02,WNW,289,1.1,0.0,95,0.02,,,0.65,WeatherDisplay:10.37,2013-01-17 01:04:00,
2013-01-16 20:05:00,43.4,42.1,30.02,WNW,290,0.0,0.0,95,0.02,,,0.65,WeatherDisplay:10.37,2013-01-17 01:05:00,
2013-01-16 20:07:00,43.4,42.1,30.02,WNW,288,0.0,0.0,95,0.02,,,0.65,WeatherDisplay:10.37,2013-01-17 01:07:00,
2013-01-16 20:09:00,43.4,42.1,30.02,WNW,288,1.1,1.1,95,0.01,,,0.65,WeatherDisplay:10.37,2013-01-17 01:09:00,
2013-01-16 20:10:00,43.3,42.0,30.02,WNW,288,1.1,1.1,95,0.01,,,0.65,WeatherDisplay:10.37,2013-01-17 01:10:00,
2013-01-16 20:12:00,43.3,42.0,30.02,WNW,290,1.1,1.1,95,0.01,,,0.65,WeatherDisplay:10.37,2013-01-17 01:12:00,
2013-01-16 20:14:00,43.3,42.0,30.02,WNW,290,0.0,0.0,95,0.01,,,0.65,WeatherDisplay:10.37,2013-01-17 01:14:00,
2013-01-16 20:15:00,43.3,42.0,30.02,WNW,288,0.0,0.0,95,0.01,,,0.65,WeatherDisplay:10.37,2013-01-17 01:15:00,
2013-01-16 20:17:00,43.3,42.2,30.03,West,267,2.3,2.3,96,0.01,,,0.65,WeatherDisplay:10.37,2013-01-17 01:17:00,
2013-01-16 20:20:00,43.2,41.9,30.03,West,261,1.1,1.1,95,0.01,,,0.65,WeatherDisplay:10.37,2013-01-17 01:20:00,
2013-01-16 20:23:00,43.2,42.1,30.03,West,262,1.1,1.1,96,0.01,,,0.65,WeatherDisplay:10.37,2013-01-17 01:23:00,
2013-01-16 20:25:00,43.2,42.1,30.03,West,262,0.0,0.0,96,0.01,,,0.65,WeatherDisplay:10.37,2013-01-17 01:25:00,
2013-01-16 20:26:00,43.2,42.1,30.03,West,261,0.0,0.0,96,0.01,,,0.65,WeatherDisplay:10.37,2013-01-17 01:26:00,
2013-01-16 20:28:00,43.2,42.1,30.03,West,262,0.0,0.0,96,0.02,RA,,0.66,WeatherDisplay:10.37,2013-01-17 01:28:00,
2013-01-16 20:30:00,43.3,42.2,30.03,West,262,0.0,0.0,96,0.02,RA,,0.66,WeatherDisplay:10.37,2013-01-17 01:30:00,
2013-01-16 20:31:00,43.3,42.2,30.03,West,262,0.0,0.0,96,0.02,RA,,0.66,WeatherDisplay:10.37,2013-01-17 01:31:00,
2013-01-16 20:33:00,43.3,42.2,30.03,West,264,1.0,0.0,96,0.02,RA,,0.66,WeatherDisplay:10.37,2013-01-17 01:33:00,
2013-01-16 20:36:00,43.4,42.3,30.02,WNW,298,1.1,1.1,96,0.02,RA,,0.66,WeatherDisplay:10.37,2013-01-17 01:36:00,
2013-01-16 20:38:00,43.4,42.3,30.02,WNW,298,1.1,0.0,96,0.03,RA,,0.67,WeatherDisplay:10.37,2013-01-17 01:38:00,
2013-01-16 20:41:00,43.3,42.2,30.03,WNW,300,1.1,1.1,96,0.02,RA,,0.67,WeatherDisplay:10.37,2013-01-17 01:41:00,
2013-01-16 20:43:00,43.3,42.2,30.03,WNW,300,1.1,1.1,96,0.02,RA,,0.67,WeatherDisplay:10.37,2013-01-17 01:43:00,
2013-01-16 20:46:00,43.3,42.2,30.03,WNW,300,1.1,0.0,96,0.02,RA,,0.67,WeatherDisplay:10.37,2013-01-17 01:46:00,
2013-01-16 20:47:00,43.3,42.2,30.03,WNW,300,1.1,0.0,96,0.02,RA,,0.67,WeatherDisplay:10.37,2013-01-17 01:47:00,
2013-01-16 20:48:00,43.3,42.2,30.02,WNW,300,0.0,0.0,96,0.02,,,0.67,WeatherDisplay:10.37,2013-01-17 01:48:00,
2013-01-16 20:52:00,43.4,42.3,30.02,WNW,300,0.0,0.0,96,0.02,,,0.67,WeatherDisplay:10.37,2013-01-17 01:52:00,
2013-01-16 20:53:00,43.4,42.3,30.03,WNW,300,0.0,0.0,96,0.02,,,0.67,WeatherDisplay:10.37,2013-01-17 01:53:00,
2013-01-16 20:57:00,43.5,42.4,30.02,WNW,300,0.0,0.0,96,0.02,,,0.67,WeatherDisplay:10.37,2013-01-17 01:57:00,
2013-01-16 20:58:00,43.5,42.4,30.02,WNW,300,0.0,0.0,96,0.02,,,0.67,WeatherDisplay:10.37,2013-01-17 01:58:00,
2013-01-16 21:02:00,43.5,42.4,30.01,WNW,300,0.0,0.0,96,0.02,,,0.67,WeatherDisplay:10.37,2013-01-17 02:02:00,
2013-01-16 21:03:00,43.5,42.4,30.01,WNW,300,0.0,0.0,96,0.02,,,0.67,WeatherDisplay:10.37,2013-01-17 02:03:00,
2013-01-16 21:04:00,43.5,42.7,30.01,WNW,300,0.0,0.0,97,0.02,,,0.67,WeatherDisplay:10.37,2013-01-17 02:04:00,
2013-01-16 21:07:00,43.5,42.4,30.01,WNW,300,0.0,0.0,96,0.02,,,0.67,WeatherDisplay:10.37,2013-01-17 02:07:00,
2013-01-16 21:09:00,43.5,42.4,30.01,WNW,300,0.0,0.0,96,0.02,,,0.67,WeatherDisplay:10.37,2013-01-17 02:09:00,
2013-01-16 21:12:00,43.5,42.4,30.02,WNW,300,0.0,0.0,96,0.02,,,0.67,WeatherDisplay:10.37,2013-01-17 02:12:00,
2013-01-16 21:14:00,43.5,42.4,30.03,WNW,292,1.1,1.1,96,0.02,,,0.67,WeatherDisplay:10.37,2013-01-17 02:14:00,
2013-01-16 21:15:00,43.5,42.4,30.03,WNW,292,0.0,0.0,96,0.02,,,0.67,WeatherDisplay:10.37,2013-01-17 02:15:00,
2013-01-16 21:17:00,43.5,42.4,30.03,WNW,292,1.0,0.0,96,0.02,,,0.67,WeatherDisplay:10.37,2013-01-17 02:17:00,
2013-01-16 21:19:00,43.5,42.4,30.03,WNW,292,1.1,0.0,96,0.02,,,0.67,WeatherDisplay:10.37,2013-01-17 02:19:00,
2013-01-16 21:20:00,43.5,42.4,30.02,WNW,293,0.0,0.0,96,0.02,,,0.67,WeatherDisplay:10.37,2013-01-17 02:20:00,
2013-01-16 21:22:00,43.5,42.7,30.02,WNW,292,0.0,0.0,97,0.02,,,0.67,WeatherDisplay:10.37,2013-01-17 02:22:00,
2013-01-16 21:23:00,43.5,42.7,30.02,WNW,292,0.0,0.0,97,0.02,,,0.67,WeatherDisplay:10.37,2013-01-17 02:23:00,
2013-01-16 21:24:00,43.6,42.5,30.02,WNW,292,0.0,0.0,96,0.02,,,0.67,WeatherDisplay:10.37,2013-01-17 02:24:00,
2013-01-16 21:25:00,43.5,42.4,30.02,WNW,292,0.0,0.0,96,0.02,,,0.67,WeatherDisplay:10.37,2013-01-17 02:25:00,
2013-01-16 21:27:00,43.5,42.4,30.02,WNW,292,1.1,0.0,96,0.02,,,0.67,WeatherDisplay:10.37,2013-01-17 02:27:00,
2013-01-16 21:28:00,43.5,42.4,30.02,WNW,292,0.0,0.0,96,0.01,,,0.67,WeatherDisplay:10.37,2013-01-17 02:28:00,
2013-01-16 21:29:00,43.6,42.5,30.02,WNW,292,0.0,0.0,96,0.01,,,0.67,WeatherDisplay:10.37,2013-01-17 02:29:00,
2013-01-16 21:31:00,43.5,42.4,30.01,WNW,292,0.0,0.0,96,0.01,,,0.67,WeatherDisplay:10.37,2013-01-17 02:31:00,
2013-01-16 21:33:00,43.5,42.4,30.01,WNW,292,0.0,0.0,96,0.01,,,0.67,WeatherDisplay:10.37,2013-01-17 02:33:00,
2013-01-16 21:34:00,43.5,42.4,30.01,WNW,292,0.0,0.0,96,0.01,,,0.67,WeatherDisplay:10.37,2013-01-17 02:34:00,
2013-01-16 21:36:00,43.5,42.4,30.01,WNW,292,0.0,0.0,96,0.01,,,0.67,WeatherDisplay:10.37,2013-01-17 02:36:00,
2013-01-16 21:38:00,43.5,42.4,30.01,WNW,292,0.0,0.0,96,0.00,,,0.67,WeatherDisplay:10.37,2013-01-17 02:38:00,
2013-01-16 21:39:00,43.5,42.4,30.02,WNW,292,0.0,0.0,96,0.00,,,0.67,WeatherDisplay:10.37,2013-01-17 02:39:00,
2013-01-16 21:41:00,43.5,42.4,30.02,WNW,290,0.0,0.1,96,0.00,,,0.67,WeatherDisplay:10.37,2013-01-17 02:41:00,
2013-01-16 21:43:00,43.6,42.5,30.03,WNW,290,1.1,1.1,96,0.00,,,0.67,WeatherDisplay:10.37,2013-01-17 02:43:00,
2013-01-16 21:45:00,43.6,42.8,30.03,WNW,300,3.5,3.5,97,0.00,,,0.67,WeatherDisplay:10.37,2013-01-17 02:45:00,
2013-01-16 21:46:00,43.6,42.8,30.03,West,260,2.3,2.3,97,0.00,,,0.67,WeatherDisplay:10.37,2013-01-17 02:46:00,
2013-01-16 21:48:00,43.6,42.8,30.03,WSW,255,1.1,1.1,97,0.00,,,0.67,WeatherDisplay:10.37,2013-01-17 02:48:00,
2013-01-16 21:50:00,43.6,42.8,30.02,WSW,255,2.3,0.0,97,0.00,,,0.67,WeatherDisplay:10.37,2013-01-17 02:50:00,
2013-01-16 21:52:00,43.6,42.8,30.03,WSW,257,2.3,2.3,97,0.00,,,0.67,WeatherDisplay:10.37,2013-01-17 02:52:00,
2013-01-16 21:53:00,43.7,42.9,30.04,WSW,258,2.3,2.3,97,0.00,,,0.67,WeatherDisplay:10.37,2013-01-17 02:53:00,
2013-01-16 21:54:00,43.7,42.9,30.04,West,259,3.5,3.5,97,0.00,,,0.67,WeatherDisplay:10.37,2013-01-17 02:54:00,
2013-01-16 21:55:00,43.7,42.9,30.05,WSW,253,3.5,3.5,97,0.00,,,0.67,WeatherDisplay:10.37,2013-01-17 02:55:00,
2013-01-16 21:57:00,43.7,42.9,30.05,WSW,255,4.6,4.6,97,0.00,,,0.67,WeatherDisplay:10.37,2013-01-17 02:57:00,
2013-01-16 21:59:00,43.7,42.9,30.05,West,259,3.5,3.5,97,0.00,,,0.67,WeatherDisplay:10.37,2013-01-17 02:59:00,
2013-01-16 22:00:00,43.7,42.6,30.05,WNW,283,3.5,3.5,96,0.00,,,0.67,WeatherDisplay:10.37,2013-01-17 03:00:00,
2013-01-16 22:03:00,43.7,42.6,30.04,West,259,3.5,3.5,96,0.00,,,0.67,WeatherDisplay:10.37,2013-01-17 03:03:00,
2013-01-16 22:04:00,43.7,42.6,30.04,WSW,256,1.1,1.1,96,0.00,,,0.67,WeatherDisplay:10.37,2013-01-17 03:04:00,
2013-01-16 22:05:00,43.7,42.6,30.04,West,267,2.3,2.3,96,0.00,,,0.67,WeatherDisplay:10.37,2013-01-17 03:05:00,
2013-01-16 22:06:00,43.7,42.6,30.04,West,266,2.3,2.3,96,0.00,,,0.67,WeatherDisplay:10.37,2013-01-17 03:06:00,
2013-01-16 22:08:00,43.7,42.6,30.04,West,265,1.1,1.1,96,0.00,,,0.67,WeatherDisplay:10.37,2013-01-17 03:08:00,
2013-01-16 22:09:00,43.7,42.6,30.03,West,265,1.1,1.1,96,0.00,,,0.67,WeatherDisplay:10.37,2013-01-17 03:09:00,
2013-01-16 22:10:00,43.6,42.5,30.03,West,265,1.1,1.1,96,0.00,,,0.67,WeatherDisplay:10.37,2013-01-17 03:10:00,
2013-01-16 22:12:00,43.6,42.5,30.03,West,265,1.1,1.1,96,0.00,,,0.67,WeatherDisplay:10.37,2013-01-17 03:12:00,
2013-01-16 22:13:00,43.6,42.5,30.03,West,265,1.0,0.0,96,0.00,,,0.67,WeatherDisplay:10.37,2013-01-17 03:13:00,
2013-01-16 22:15:00,43.6,42.5,30.03,West,265,0.0,1.0,96,0.00,,,0.67,WeatherDisplay:10.37,2013-01-17 03:15:00,
2013-01-16 22:17:00,43.6,42.5,30.02,West,265,0.0,0.0,96,0.00,,,0.67,WeatherDisplay:10.37,2013-01-17 03:17:00,
2013-01-16 22:18:00,43.6,42.5,30.02,West,265,1.1,0.0,96,0.00,,,0.67,WeatherDisplay:10.37,2013-01-17 03:18:00,
2013-01-16 22:20:00,43.6,42.5,30.02,West,266,1.1,0.0,96,0.00,,,0.67,WeatherDisplay:10.37,2013-01-17 03:20:00,
2013-01-16 22:22:00,43.6,42.5,30.01,West,265,1.1,0.0,96,0.00,,,0.67,WeatherDisplay:10.37,2013-01-17 03:22:00,
2013-01-16 22:24:00,43.6,42.8,30.01,West,265,0.0,0.0,97,0.00,,,0.67,WeatherDisplay:10.37,2013-01-17 03:24:00,
2013-01-16 22:25:00,43.6,42.8,30.01,West,265,0.0,1.0,97,0.00,,,0.67,WeatherDisplay:10.37,2013-01-17 03:25:00,
2013-01-16 22:27:00,43.6,42.8,30.02,West,265,1.1,1.1,97,0.00,,,0.67,WeatherDisplay:10.37,2013-01-17 03:27:00,
2013-01-16 22:29:00,43.6,42.8,30.03,West,259,1.1,1.1,97,0.00,,,0.67,WeatherDisplay:10.37,2013-01-17 03:29:00,
2013-01-16 22:30:00,43.6,42.8,30.03,West,260,2.3,2.3,97,0.00,,,0.67,WeatherDisplay:10.37,2013-01-17 03:30:00,
2013-01-16 22:31:00,43.6,42.8,30.03,WSW,244,3.5,3.5,97,0.00,,,0.67,WeatherDisplay:10.37,2013-01-17 03:31:00,
2013-01-16 22:32:00,43.6,42.8,30.03,WSW,258,2.3,2.3,97,0.00,,,0.67,WeatherDisplay:10.37,2013-01-17 03:32:00,
2013-01-16 22:35:00,43.6,42.8,30.03,WSW,258,1.1,1.1,97,0.00,,,0.67,WeatherDisplay:10.37,2013-01-17 03:35:00,
2013-01-16 22:36:00,43.6,42.8,30.03,West,266,1.1,1.1,97,0.00,,,0.67,WeatherDisplay:10.37,2013-01-17 03:36:00,
2013-01-16 22:37:00,43.6,42.8,30.02,WNW,287,1.1,1.1,97,0.00,,,0.67,WeatherDisplay:10.37,2013-01-17 03:37:00,
2013-01-16 22:40:00,43.6,42.8,30.02,WNW,292,2.3,2.3,97,0.00,,,0.67,WeatherDisplay:10.37,2013-01-17 03:40:00,
2013-01-16 22:41:00,43.6,42.8,30.02,WNW,292,1.1,0.0,97,0.00,,,0.67,WeatherDisplay:10.37,2013-01-17 03:41:00,
2013-01-16 22:42:00,43.6,42.8,30.02,WNW,300,2.0,2.0,97,0.00,,,0.67,WeatherDisplay:10.37,2013-01-17 03:42:00,
2013-01-16 22:45:00,43.6,42.8,30.02,West,265,2.3,2.3,97,0.00,,,0.67,WeatherDisplay:10.37,2013-01-17 03:45:00,
2013-01-16 22:47:00,43.5,42.4,30.02,NW,309,4.6,4.6,96,0.00,,,0.67,WeatherDisplay:10.37,2013-01-17 03:47:00,
2013-01-16 22:48:00,43.3,42.2,30.02,WNW,290,5.8,5.8,96,0.00,,,0.68,WeatherDisplay:10.37,2013-01-17 03:48:00,
2013-01-16 22:50:00,43.2,41.9,30.02,WNW,288,4.6,4.6,95,0.01,RA,,0.68,WeatherDisplay:10.37,2013-01-17 03:50:00,
2013-01-16 22:51:00,43.2,41.9,30.03,WNW,282,1.1,0.0,95,0.01,RA,,0.68,WeatherDisplay:10.37,2013-01-17 03:51:00,
2013-01-16 22:52:00,43.2,41.9,30.02,WSW,251,1.1,1.1,95,0.01,RA,,0.68,WeatherDisplay:10.37,2013-01-17 03:52:00,
2013-01-16 22:53:00,43.2,41.9,30.02,WNW,302,2.3,2.3,95,0.01,RA,,0.68,WeatherDisplay:10.37,2013-01-17 03:53:00,
2013-01-16 22:55:00,43.1,41.8,30.02,WNW,292,2.3,2.3,95,0.01,RA,,0.68,WeatherDisplay:10.37,2013-01-17 03:55:00,
2013-01-16 22:56:00,43.1,41.8,30.02,WNW,292,1.1,0.0,95,0.01,RA,,0.68,WeatherDisplay:10.37,2013-01-17 03:56:00,
2013-01-16 22:57:00,43.1,41.8,30.02,West,269,1.1,0.0,95,0.01,RA,,0.68,WeatherDisplay:10.37,2013-01-17 03:57:00,
2013-01-16 22:58:00,43.1,41.8,30.02,WSW,254,1.1,1.1,95,0.01,RA,,0.68,WeatherDisplay:10.37,2013-01-17 03:58:00,
2013-01-16 23:00:00,43.0,41.7,30.03,WSW,243,3.5,3.5,95,0.01,,,0.68,WeatherDisplay:10.37,2013-01-17 04:00:00,
2013-01-16 23:01:00,43.0,41.7,30.04,WSW,244,3.5,3.5,95,0.01,,,0.68,WeatherDisplay:10.37,2013-01-17 04:01:00,
2013-01-16 23:02:00,43.0,41.7,30.05,WSW,244,4.6,4.6,95,0.01,,,0.68,WeatherDisplay:10.37,2013-01-17 04:02:00,
2013-01-16 23:03:00,42.9,41.6,30.05,NW,308,3.5,3.5,95,0.01,,,0.68,WeatherDisplay:10.37,2013-01-17 04:03:00,
2013-01-16 23:06:00,42.9,41.6,30.05,West,281,0.0,0.1,95,0.01,,,0.68,WeatherDisplay:10.37,2013-01-17 04:06:00,
2013-01-16 23:07:00,42.9,41.6,30.05,West,274,1.1,0.0,95,0.01,,,0.68,WeatherDisplay:10.37,2013-01-17 04:07:00,
2013-01-16 23:08:00,42.9,41.6,30.04,West,267,3.5,3.5,95,0.01,,,0.68,WeatherDisplay:10.37,2013-01-17 04:08:00,
2013-01-16 23:11:00,42.9,41.6,30.03,WNW,300,2.3,2.3,95,0.01,,,0.68,WeatherDisplay:10.37,2013-01-17 04:11:00,
2013-01-16 23:12:00,42.9,41.6,30.03,WNW,300,2.3,2.3,95,0.01,,,0.68,WeatherDisplay:10.37,2013-01-17 04:12:00,
2013-01-16 23:14:00,42.9,41.8,30.03,WNW,300,0.0,0.0,96,0.01,,,0.68,WeatherDisplay:10.37,2013-01-17 04:14:00,
2013-01-16 23:16:00,43.0,41.9,30.03,WNW,290,0.0,0.0,96,0.02,RA,,0.69,WeatherDisplay:10.37,2013-01-17 04:16:00,
2013-01-16 23:17:00,43.0,41.9,30.03,WSW,253,2.3,2.3,96,0.02,RA,,0.69,WeatherDisplay:10.37,2013-01-17 04:17:00,
2013-01-16 23:19:00,43.0,41.9,30.03,WSW,253,2.3,2.3,96,0.02,RA,,0.69,WeatherDisplay:10.37,2013-01-17 04:19:00,
2013-01-16 23:21:00,43.0,41.9,30.03,WSW,256,1.1,1.1,96,0.02,RA,,0.69,WeatherDisplay:10.37,2013-01-17 04:21:00,
2013-01-16 23:22:00,43.0,41.9,30.03,WSW,255,1.1,1.1,96,0.02,RA,,0.69,WeatherDisplay:10.37,2013-01-17 04:22:00,
2013-01-16 23:24:00,43.0,41.9,30.03,West,260,1.1,1.1,96,0.02,RA,,0.69,WeatherDisplay:10.37,2013-01-17 04:24:00,
2013-01-16 23:26:00,43.0,41.9,30.03,WSW,255,1.1,1.1,96,0.02,,,0.69,WeatherDisplay:10.37,2013-01-17 04:26:00,
2013-01-16 23:27:00,43.0,41.9,30.03,WSW,253,1.1,1.1,96,0.02,,,0.69,WeatherDisplay:10.37,2013-01-17 04:27:00,
2013-01-16 23:29:00,43.0,41.9,30.03,West,262,2.3,2.3,96,0.02,,,0.69,WeatherDisplay:10.37,2013-01-17 04:29:00,
2013-01-16 23:32:00,43.0,41.9,30.03,West,262,1.1,1.1,96,0.02,,,0.69,WeatherDisplay:10.37,2013-01-17 04:32:00,
2013-01-16 23:34:00,43.0,41.9,30.03,West,262,1.1,0.0,96,0.02,,,0.69,WeatherDisplay:10.37,2013-01-17 04:34:00,
2013-01-16 23:37:00,43.0,41.7,30.03,WNW,286,2.3,2.3,95,0.02,,,0.69,WeatherDisplay:10.37,2013-01-17 04:37:00,
2013-01-16 23:39:00,43.0,41.9,30.03,WNW,286,1.1,1.1,96,0.02,,,0.69,WeatherDisplay:10.37,2013-01-17 04:39:00,
2013-01-16 23:42:00,43.0,41.9,30.03,WNW,286,0.0,0.0,96,0.02,,,0.69,WeatherDisplay:10.37,2013-01-17 04:42:00,
2013-01-16 23:43:00,43.0,41.9,30.03,WNW,286,0.0,0.0,96,0.02,,,0.69,WeatherDisplay:10.37,2013-01-17 04:43:00,
2013-01-16 23:44:00,43.1,42.0,30.03,WNW,287,0.0,0.0,96,0.02,,,0.69,WeatherDisplay:10.37,2013-01-17 04:44:00,
2013-01-16 23:47:00,43.0,41.9,30.03,WNW,287,1.1,0.0,96,0.02,,,0.69,WeatherDisplay:10.37,2013-01-17 04:47:00,
2013-01-16 23:48:00,43.1,42.0,30.03,WNW,286,0.0,0.0,96,0.02,,,0.69,WeatherDisplay:10.37,2013-01-17 04:48:00,
2013-01-16 23:50:00,43.1,42.0,30.03,WNW,287,0.0,0.0,96,0.01,,,0.69,WeatherDisplay:10.37,2013-01-17 04:50:00,
2013-01-16 23:52:00,43.1,42.0,30.03,WNW,286,1.1,0.0,96,0.01,,,0.69,WeatherDisplay:10.37,2013-01-17 04:52:00,
2013-01-16 23:53:00,43.1,42.0,30.03,WNW,286,0.0,0.0,96,0.01,,,0.69,WeatherDisplay:10.37,2013-01-17 04:53:00,
2013-01-16 23:55:00,43.1,42.0,30.02,WNW,287,0.0,0.0,96,0.01,,,0.69,WeatherDisplay:10.37,2013-01-17 04:55:00,
2013-01-16 23:57:00,43.1,42.0,30.02,WNW,287,0.0,0.0,96,0.01,,,0.69,WeatherDisplay:10.37,2013-01-17 04:57:00,
2013-01-16 23:58:00,43.1,42.0,30.02,WNW,287,0.0,0.0,96,0.01,,,0.69,WeatherDisplay:10.37,2013-01-17 04:58:00,